<?xml version="1.0" encoding="UTF-8" standalone="no" ?>
<gpx xmlns="http://www.topografix.com/GPX/1/1" xmlns:xsi="http://www.w3.org/2001/XMLSchema-instance" xsi:schemaLocation="http://www.topografix.com/GPX/1/1 http://www.topografix.com/GPX/1/1/gpx.xsd" version="1.1" creator="VisuGPX - https://www.visugpx.com">
  <metadata>
    <name>JP_Verger_AICC22</name>
  </metadata>
  <trk>
    <name><![CDATA[13366135-Jean-Pierre VERGER]]></name>
    <trkseg>
      <trkpt lat="47.32134" lon="3.65537">
        <ele>173</ele>
        <time>2022-06-03T20:17:28Z</time>
      </trkpt>
      <trkpt lat="47.32089" lon="3.65553">
        <ele>173</ele>
        <time>2022-06-03T20:17:36Z</time>
      </trkpt>
      <trkpt lat="47.32075" lon="3.65562">
        <ele>174</ele>
        <time>2022-06-03T20:17:39Z</time>
      </trkpt>
      <trkpt lat="47.32064" lon="3.65576">
        <ele>174</ele>
        <time>2022-06-03T20:17:42Z</time>
      </trkpt>
      <trkpt lat="47.3205" lon="3.65596">
        <ele>174</ele>
        <time>2022-06-03T20:17:45Z</time>
      </trkpt>
      <trkpt lat="47.32039" lon="3.65608">
        <ele>174</ele>
        <time>2022-06-03T20:17:47Z</time>
      </trkpt>
      <trkpt lat="47.32034" lon="3.65609">
        <ele>174</ele>
        <time>2022-06-03T20:17:48Z</time>
      </trkpt>
      <trkpt lat="47.31984" lon="3.65605">
        <ele>175</ele>
        <time>2022-06-03T20:17:57Z</time>
      </trkpt>
      <trkpt lat="47.31981" lon="3.6563">
        <ele>174</ele>
        <time>2022-06-03T20:18:00Z</time>
      </trkpt>
      <trkpt lat="47.31973" lon="3.65633">
        <ele>174</ele>
        <time>2022-06-03T20:18:02Z</time>
      </trkpt>
      <trkpt lat="47.31894" lon="3.65608">
        <ele>175</ele>
        <time>2022-06-03T20:18:16Z</time>
      </trkpt>
      <trkpt lat="47.31786" lon="3.65569">
        <ele>173</ele>
        <time>2022-06-03T20:18:36Z</time>
      </trkpt>
      <trkpt lat="47.31753" lon="3.65555">
        <ele>173</ele>
        <time>2022-06-03T20:18:42Z</time>
      </trkpt>
      <trkpt lat="47.31675" lon="3.65539">
        <ele>173</ele>
        <time>2022-06-03T20:18:56Z</time>
      </trkpt>
      <trkpt lat="47.31662" lon="3.6554">
        <ele>173</ele>
        <time>2022-06-03T20:18:58Z</time>
      </trkpt>
      <trkpt lat="47.31569" lon="3.65571">
        <ele>173</ele>
        <time>2022-06-03T20:19:15Z</time>
      </trkpt>
      <trkpt lat="47.31455" lon="3.65629">
        <ele>175</ele>
        <time>2022-06-03T20:19:37Z</time>
      </trkpt>
      <trkpt lat="47.31443" lon="3.65637">
        <ele>175</ele>
        <time>2022-06-03T20:19:39Z</time>
      </trkpt>
      <trkpt lat="47.31371" lon="3.65665">
        <ele>174</ele>
        <time>2022-06-03T20:19:52Z</time>
      </trkpt>
      <trkpt lat="47.31323" lon="3.65689">
        <ele>174</ele>
        <time>2022-06-03T20:20:01Z</time>
      </trkpt>
      <trkpt lat="47.31297" lon="3.65705">
        <ele>174</ele>
        <time>2022-06-03T20:20:06Z</time>
      </trkpt>
      <trkpt lat="47.31232" lon="3.65758">
        <ele>174</ele>
        <time>2022-06-03T20:20:20Z</time>
      </trkpt>
      <trkpt lat="47.31196" lon="3.65797">
        <ele>175</ele>
        <time>2022-06-03T20:20:28Z</time>
      </trkpt>
      <trkpt lat="47.31098" lon="3.65917">
        <ele>176</ele>
        <time>2022-06-03T20:20:50Z</time>
      </trkpt>
      <trkpt lat="47.31012" lon="3.6602">
        <ele>175</ele>
        <time>2022-06-03T20:21:10Z</time>
      </trkpt>
      <trkpt lat="47.31006" lon="3.66009">
        <ele>175</ele>
        <time>2022-06-03T20:21:12Z</time>
      </trkpt>
      <trkpt lat="47.30973" lon="3.66042">
        <ele>176</ele>
        <time>2022-06-03T20:21:19Z</time>
      </trkpt>
      <trkpt lat="47.30905" lon="3.66092">
        <ele>178</ele>
        <time>2022-06-03T20:21:32Z</time>
      </trkpt>
      <trkpt lat="47.30886" lon="3.66099">
        <ele>178</ele>
        <time>2022-06-03T20:21:36Z</time>
      </trkpt>
      <trkpt lat="47.30797" lon="3.6612">
        <ele>181</ele>
        <time>2022-06-03T20:21:52Z</time>
      </trkpt>
      <trkpt lat="47.30759" lon="3.66124">
        <ele>183</ele>
        <time>2022-06-03T20:21:59Z</time>
      </trkpt>
      <trkpt lat="47.30211" lon="3.6608">
        <ele>188</ele>
        <time>2022-06-03T20:23:36Z</time>
      </trkpt>
      <trkpt lat="47.29933" lon="3.66073">
        <ele>191</ele>
        <time>2022-06-03T20:24:26Z</time>
      </trkpt>
      <trkpt lat="47.29835" lon="3.66074">
        <ele>191</ele>
        <time>2022-06-03T20:24:43Z</time>
      </trkpt>
      <trkpt lat="47.29763" lon="3.66071">
        <ele>192</ele>
        <time>2022-06-03T20:24:56Z</time>
      </trkpt>
      <trkpt lat="47.29748" lon="3.66066">
        <ele>192</ele>
        <time>2022-06-03T20:24:59Z</time>
      </trkpt>
      <trkpt lat="47.29734" lon="3.66053">
        <ele>193</ele>
        <time>2022-06-03T20:25:02Z</time>
      </trkpt>
      <trkpt lat="47.29727" lon="3.66044">
        <ele>193</ele>
        <time>2022-06-03T20:25:03Z</time>
      </trkpt>
      <trkpt lat="47.29715" lon="3.66036">
        <ele>194</ele>
        <time>2022-06-03T20:25:06Z</time>
      </trkpt>
      <trkpt lat="47.29666" lon="3.66034">
        <ele>194</ele>
        <time>2022-06-03T20:25:14Z</time>
      </trkpt>
      <trkpt lat="47.29378" lon="3.65912">
        <ele>193</ele>
        <time>2022-06-03T20:26:08Z</time>
      </trkpt>
      <trkpt lat="47.29067" lon="3.6577">
        <ele>193</ele>
        <time>2022-06-03T20:27:06Z</time>
      </trkpt>
      <trkpt lat="47.29037" lon="3.6576">
        <ele>193</ele>
        <time>2022-06-03T20:27:11Z</time>
      </trkpt>
      <trkpt lat="47.28986" lon="3.65753">
        <ele>191</ele>
        <time>2022-06-03T20:27:20Z</time>
      </trkpt>
      <trkpt lat="47.28874" lon="3.65743">
        <ele>188</ele>
        <time>2022-06-03T20:27:40Z</time>
      </trkpt>
      <trkpt lat="47.28852" lon="3.65739">
        <ele>187</ele>
        <time>2022-06-03T20:27:44Z</time>
      </trkpt>
      <trkpt lat="47.28817" lon="3.65725">
        <ele>187</ele>
        <time>2022-06-03T20:27:51Z</time>
      </trkpt>
      <trkpt lat="47.28766" lon="3.65692">
        <ele>186</ele>
        <time>2022-06-03T20:28:00Z</time>
      </trkpt>
      <trkpt lat="47.28683" lon="3.65614">
        <ele>187</ele>
        <time>2022-06-03T20:28:18Z</time>
      </trkpt>
      <trkpt lat="47.28687" lon="3.65657">
        <ele>183</ele>
        <time>2022-06-03T20:28:23Z</time>
      </trkpt>
      <trkpt lat="47.28683" lon="3.65614">
        <ele>187</ele>
        <time>2022-06-03T20:28:28Z</time>
      </trkpt>
      <trkpt lat="47.28653" lon="3.65591">
        <ele>186</ele>
        <time>2022-06-03T20:28:34Z</time>
      </trkpt>
      <trkpt lat="47.28549" lon="3.6552">
        <ele>189</ele>
        <time>2022-06-03T20:28:55Z</time>
      </trkpt>
      <trkpt lat="47.28393" lon="3.65408">
        <ele>195</ele>
        <time>2022-06-03T20:29:26Z</time>
      </trkpt>
      <trkpt lat="47.28379" lon="3.65394">
        <ele>196</ele>
        <time>2022-06-03T20:29:29Z</time>
      </trkpt>
      <trkpt lat="47.28347" lon="3.65358">
        <ele>197</ele>
        <time>2022-06-03T20:29:36Z</time>
      </trkpt>
      <trkpt lat="47.28323" lon="3.65326">
        <ele>199</ele>
        <time>2022-06-03T20:29:42Z</time>
      </trkpt>
      <trkpt lat="47.28289" lon="3.65272">
        <ele>200</ele>
        <time>2022-06-03T20:29:51Z</time>
      </trkpt>
      <trkpt lat="47.28274" lon="3.65264">
        <ele>199</ele>
        <time>2022-06-03T20:29:53Z</time>
      </trkpt>
      <trkpt lat="47.28264" lon="3.65262">
        <ele>198</ele>
        <time>2022-06-03T20:29:55Z</time>
      </trkpt>
      <trkpt lat="47.28238" lon="3.65267">
        <ele>195</ele>
        <time>2022-06-03T20:30:00Z</time>
      </trkpt>
      <trkpt lat="47.28231" lon="3.65275">
        <ele>194</ele>
        <time>2022-06-03T20:30:01Z</time>
      </trkpt>
      <trkpt lat="47.28214" lon="3.65286">
        <ele>193</ele>
        <time>2022-06-03T20:30:05Z</time>
      </trkpt>
      <trkpt lat="47.28174" lon="3.65304">
        <ele>191</ele>
        <time>2022-06-03T20:30:12Z</time>
      </trkpt>
      <trkpt lat="47.28148" lon="3.65303">
        <ele>191</ele>
        <time>2022-06-03T20:30:17Z</time>
      </trkpt>
      <trkpt lat="47.28101" lon="3.65293">
        <ele>192</ele>
        <time>2022-06-03T20:30:25Z</time>
      </trkpt>
      <trkpt lat="47.28039" lon="3.65292">
        <ele>191</ele>
        <time>2022-06-03T20:30:36Z</time>
      </trkpt>
      <trkpt lat="47.2801" lon="3.65295">
        <ele>191</ele>
        <time>2022-06-03T20:30:41Z</time>
      </trkpt>
      <trkpt lat="47.2798" lon="3.65301">
        <ele>191</ele>
        <time>2022-06-03T20:30:47Z</time>
      </trkpt>
      <trkpt lat="47.27978" lon="3.65315">
        <ele>191</ele>
        <time>2022-06-03T20:30:49Z</time>
      </trkpt>
      <trkpt lat="47.27967" lon="3.65343">
        <ele>191</ele>
        <time>2022-06-03T20:30:52Z</time>
      </trkpt>
      <trkpt lat="47.27872" lon="3.65534">
        <ele>187</ele>
        <time>2022-06-03T20:31:21Z</time>
      </trkpt>
      <trkpt lat="47.27859" lon="3.65557">
        <ele>185</ele>
        <time>2022-06-03T20:31:25Z</time>
      </trkpt>
      <trkpt lat="47.27856" lon="3.65556">
        <ele>185</ele>
        <time>2022-06-03T20:31:25Z</time>
      </trkpt>
      <trkpt lat="47.27854" lon="3.65562">
        <ele>185</ele>
        <time>2022-06-03T20:31:26Z</time>
      </trkpt>
      <trkpt lat="47.27847" lon="3.65576">
        <ele>184</ele>
        <time>2022-06-03T20:31:28Z</time>
      </trkpt>
      <trkpt lat="47.2782" lon="3.65606">
        <ele>183</ele>
        <time>2022-06-03T20:31:34Z</time>
      </trkpt>
      <trkpt lat="47.27808" lon="3.6562">
        <ele>182</ele>
        <time>2022-06-03T20:31:37Z</time>
      </trkpt>
      <trkpt lat="47.278" lon="3.65629">
        <ele>182</ele>
        <time>2022-06-03T20:31:39Z</time>
      </trkpt>
      <trkpt lat="47.27763" lon="3.6567">
        <ele>182</ele>
        <time>2022-06-03T20:31:47Z</time>
      </trkpt>
      <trkpt lat="47.27739" lon="3.65695">
        <ele>181</ele>
        <time>2022-06-03T20:31:52Z</time>
      </trkpt>
      <trkpt lat="47.27723" lon="3.65718">
        <ele>181</ele>
        <time>2022-06-03T20:31:56Z</time>
      </trkpt>
      <trkpt lat="47.27715" lon="3.6575">
        <ele>180</ele>
        <time>2022-06-03T20:32:00Z</time>
      </trkpt>
      <trkpt lat="47.27724" lon="3.65905">
        <ele>181</ele>
        <time>2022-06-03T20:32:19Z</time>
      </trkpt>
      <trkpt lat="47.27708" lon="3.65887">
        <ele>180</ele>
        <time>2022-06-03T20:32:23Z</time>
      </trkpt>
      <trkpt lat="47.27553" lon="3.65672">
        <ele>181</ele>
        <time>2022-06-03T20:33:00Z</time>
      </trkpt>
      <trkpt lat="47.27545" lon="3.65661">
        <ele>182</ele>
        <time>2022-06-03T20:33:02Z</time>
      </trkpt>
      <trkpt lat="47.27536" lon="3.6565">
        <ele>182</ele>
        <time>2022-06-03T20:33:04Z</time>
      </trkpt>
      <trkpt lat="47.27524" lon="3.65643">
        <ele>182</ele>
        <time>2022-06-03T20:33:07Z</time>
      </trkpt>
      <trkpt lat="47.27385" lon="3.65591">
        <ele>182</ele>
        <time>2022-06-03T20:33:32Z</time>
      </trkpt>
      <trkpt lat="47.27368" lon="3.65589">
        <ele>182</ele>
        <time>2022-06-03T20:33:35Z</time>
      </trkpt>
      <trkpt lat="47.27333" lon="3.65592">
        <ele>183</ele>
        <time>2022-06-03T20:33:42Z</time>
      </trkpt>
      <trkpt lat="47.27176" lon="3.65577">
        <ele>183</ele>
        <time>2022-06-03T20:34:10Z</time>
      </trkpt>
      <trkpt lat="47.27153" lon="3.65569">
        <ele>183</ele>
        <time>2022-06-03T20:34:14Z</time>
      </trkpt>
      <trkpt lat="47.27085" lon="3.65524">
        <ele>182</ele>
        <time>2022-06-03T20:34:27Z</time>
      </trkpt>
      <trkpt lat="47.27057" lon="3.65515">
        <ele>184</ele>
        <time>2022-06-03T20:34:32Z</time>
      </trkpt>
      <trkpt lat="47.27031" lon="3.65503">
        <ele>185</ele>
        <time>2022-06-03T20:34:37Z</time>
      </trkpt>
      <trkpt lat="47.26921" lon="3.65415">
        <ele>192</ele>
        <time>2022-06-03T20:34:59Z</time>
      </trkpt>
      <trkpt lat="47.26908" lon="3.65407">
        <ele>192</ele>
        <time>2022-06-03T20:35:02Z</time>
      </trkpt>
      <trkpt lat="47.26827" lon="3.65381">
        <ele>192</ele>
        <time>2022-06-03T20:35:16Z</time>
      </trkpt>
      <trkpt lat="47.26785" lon="3.65364">
        <ele>193</ele>
        <time>2022-06-03T20:35:24Z</time>
      </trkpt>
      <trkpt lat="47.26727" lon="3.65352">
        <ele>194</ele>
        <time>2022-06-03T20:35:35Z</time>
      </trkpt>
      <trkpt lat="47.26629" lon="3.65304">
        <ele>196</ele>
        <time>2022-06-03T20:35:53Z</time>
      </trkpt>
      <trkpt lat="47.26601" lon="3.65297">
        <ele>197</ele>
        <time>2022-06-03T20:35:58Z</time>
      </trkpt>
      <trkpt lat="47.26559" lon="3.65289">
        <ele>198</ele>
        <time>2022-06-03T20:36:06Z</time>
      </trkpt>
      <trkpt lat="47.26539" lon="3.65281">
        <ele>198</ele>
        <time>2022-06-03T20:36:09Z</time>
      </trkpt>
      <trkpt lat="47.26503" lon="3.65258">
        <ele>197</ele>
        <time>2022-06-03T20:36:16Z</time>
      </trkpt>
      <trkpt lat="47.2649" lon="3.65247">
        <ele>197</ele>
        <time>2022-06-03T20:36:19Z</time>
      </trkpt>
      <trkpt lat="47.26452" lon="3.65197">
        <ele>194</ele>
        <time>2022-06-03T20:36:28Z</time>
      </trkpt>
      <trkpt lat="47.2644" lon="3.65185">
        <ele>194</ele>
        <time>2022-06-03T20:36:31Z</time>
      </trkpt>
      <trkpt lat="47.26377" lon="3.65142">
        <ele>194</ele>
        <time>2022-06-03T20:36:43Z</time>
      </trkpt>
      <trkpt lat="47.26346" lon="3.65129">
        <ele>194</ele>
        <time>2022-06-03T20:36:49Z</time>
      </trkpt>
      <trkpt lat="47.26295" lon="3.65114">
        <ele>193</ele>
        <time>2022-06-03T20:36:58Z</time>
      </trkpt>
      <trkpt lat="47.26203" lon="3.65083">
        <ele>195</ele>
        <time>2022-06-03T20:37:15Z</time>
      </trkpt>
      <trkpt lat="47.26168" lon="3.65079">
        <ele>196</ele>
        <time>2022-06-03T20:37:21Z</time>
      </trkpt>
      <trkpt lat="47.26151" lon="3.65082">
        <ele>196</ele>
        <time>2022-06-03T20:37:24Z</time>
      </trkpt>
      <trkpt lat="47.26145" lon="3.65123">
        <ele>198</ele>
        <time>2022-06-03T20:37:29Z</time>
      </trkpt>
      <trkpt lat="47.26137" lon="3.65142">
        <ele>198</ele>
        <time>2022-06-03T20:37:32Z</time>
      </trkpt>
      <trkpt lat="47.2613" lon="3.65151">
        <ele>199</ele>
        <time>2022-06-03T20:37:33Z</time>
      </trkpt>
      <trkpt lat="47.2611" lon="3.65168">
        <ele>200</ele>
        <time>2022-06-03T20:37:38Z</time>
      </trkpt>
      <trkpt lat="47.26105" lon="3.65177">
        <ele>200</ele>
        <time>2022-06-03T20:37:39Z</time>
      </trkpt>
      <trkpt lat="47.26093" lon="3.65207">
        <ele>202</ele>
        <time>2022-06-03T20:37:43Z</time>
      </trkpt>
      <trkpt lat="47.26087" lon="3.65215">
        <ele>202</ele>
        <time>2022-06-03T20:37:45Z</time>
      </trkpt>
      <trkpt lat="47.26067" lon="3.65233">
        <ele>203</ele>
        <time>2022-06-03T20:37:49Z</time>
      </trkpt>
      <trkpt lat="47.26056" lon="3.65234">
        <ele>203</ele>
        <time>2022-06-03T20:37:51Z</time>
      </trkpt>
      <trkpt lat="47.26048" lon="3.65232">
        <ele>203</ele>
        <time>2022-06-03T20:37:52Z</time>
      </trkpt>
      <trkpt lat="47.26013" lon="3.65218">
        <ele>203</ele>
        <time>2022-06-03T20:37:59Z</time>
      </trkpt>
      <trkpt lat="47.25992" lon="3.65206">
        <ele>203</ele>
        <time>2022-06-03T20:38:03Z</time>
      </trkpt>
      <trkpt lat="47.25976" lon="3.652">
        <ele>202</ele>
        <time>2022-06-03T20:38:06Z</time>
      </trkpt>
      <trkpt lat="47.25956" lon="3.6536">
        <ele>202</ele>
        <time>2022-06-03T20:38:25Z</time>
      </trkpt>
      <trkpt lat="47.25951" lon="3.65384">
        <ele>203</ele>
        <time>2022-06-03T20:38:28Z</time>
      </trkpt>
      <trkpt lat="47.25944" lon="3.65405">
        <ele>205</ele>
        <time>2022-06-03T20:38:31Z</time>
      </trkpt>
      <trkpt lat="47.25936" lon="3.65422">
        <ele>206</ele>
        <time>2022-06-03T20:38:34Z</time>
      </trkpt>
      <trkpt lat="47.25885" lon="3.65497">
        <ele>204</ele>
        <time>2022-06-03T20:38:46Z</time>
      </trkpt>
      <trkpt lat="47.25395" lon="3.66088">
        <ele>212</ele>
        <time>2022-06-03T20:40:39Z</time>
      </trkpt>
      <trkpt lat="47.25238" lon="3.66273">
        <ele>216</ele>
        <time>2022-06-03T20:41:15Z</time>
      </trkpt>
      <trkpt lat="47.25211" lon="3.66308">
        <ele>216</ele>
        <time>2022-06-03T20:41:21Z</time>
      </trkpt>
      <trkpt lat="47.25185" lon="3.66351">
        <ele>216</ele>
        <time>2022-06-03T20:41:28Z</time>
      </trkpt>
      <trkpt lat="47.25165" lon="3.664">
        <ele>218</ele>
        <time>2022-06-03T20:41:35Z</time>
      </trkpt>
      <trkpt lat="47.25147" lon="3.66458">
        <ele>220</ele>
        <time>2022-06-03T20:41:43Z</time>
      </trkpt>
      <trkpt lat="47.25136" lon="3.66525">
        <ele>222</ele>
        <time>2022-06-03T20:41:51Z</time>
      </trkpt>
      <trkpt lat="47.25133" lon="3.66584">
        <ele>223</ele>
        <time>2022-06-03T20:41:58Z</time>
      </trkpt>
      <trkpt lat="47.25136" lon="3.66639">
        <ele>223</ele>
        <time>2022-06-03T20:42:05Z</time>
      </trkpt>
      <trkpt lat="47.25143" lon="3.66688">
        <ele>224</ele>
        <time>2022-06-03T20:42:11Z</time>
      </trkpt>
      <trkpt lat="47.25395" lon="3.67832">
        <ele>212</ele>
        <time>2022-06-03T20:44:36Z</time>
      </trkpt>
      <trkpt lat="47.25399" lon="3.67846">
        <ele>211</ele>
        <time>2022-06-03T20:44:38Z</time>
      </trkpt>
      <trkpt lat="47.25426" lon="3.67921">
        <ele>212</ele>
        <time>2022-06-03T20:44:48Z</time>
      </trkpt>
      <trkpt lat="47.25431" lon="3.67941">
        <ele>211</ele>
        <time>2022-06-03T20:44:51Z</time>
      </trkpt>
      <trkpt lat="47.25425" lon="3.67947">
        <ele>211</ele>
        <time>2022-06-03T20:44:52Z</time>
      </trkpt>
      <trkpt lat="47.25424" lon="3.67958">
        <ele>211</ele>
        <time>2022-06-03T20:44:54Z</time>
      </trkpt>
      <trkpt lat="47.25429" lon="3.67967">
        <ele>210</ele>
        <time>2022-06-03T20:44:55Z</time>
      </trkpt>
      <trkpt lat="47.25436" lon="3.67967">
        <ele>210</ele>
        <time>2022-06-03T20:44:56Z</time>
      </trkpt>
      <trkpt lat="47.25439" lon="3.67965">
        <ele>210</ele>
        <time>2022-06-03T20:44:57Z</time>
      </trkpt>
      <trkpt lat="47.25451" lon="3.67988">
        <ele>209</ele>
        <time>2022-06-03T20:45:00Z</time>
      </trkpt>
      <trkpt lat="47.25484" lon="3.6804">
        <ele>208</ele>
        <time>2022-06-03T20:45:09Z</time>
      </trkpt>
      <trkpt lat="47.25534" lon="3.68124">
        <ele>206</ele>
        <time>2022-06-03T20:45:22Z</time>
      </trkpt>
      <trkpt lat="47.25524" lon="3.68132">
        <ele>206</ele>
        <time>2022-06-03T20:45:24Z</time>
      </trkpt>
      <trkpt lat="47.2551" lon="3.68149">
        <ele>206</ele>
        <time>2022-06-03T20:45:28Z</time>
      </trkpt>
      <trkpt lat="47.25523" lon="3.68186">
        <ele>205</ele>
        <time>2022-06-03T20:45:33Z</time>
      </trkpt>
      <trkpt lat="47.25546" lon="3.68239">
        <ele>204</ele>
        <time>2022-06-03T20:45:40Z</time>
      </trkpt>
      <trkpt lat="47.25576" lon="3.68355">
        <ele>201</ele>
        <time>2022-06-03T20:45:55Z</time>
      </trkpt>
      <trkpt lat="47.25594" lon="3.68408">
        <ele>199</ele>
        <time>2022-06-03T20:46:02Z</time>
      </trkpt>
      <trkpt lat="47.25594" lon="3.68425">
        <ele>199</ele>
        <time>2022-06-03T20:46:04Z</time>
      </trkpt>
      <trkpt lat="47.256" lon="3.68434">
        <ele>199</ele>
        <time>2022-06-03T20:46:06Z</time>
      </trkpt>
      <trkpt lat="47.25624" lon="3.68509">
        <ele>198</ele>
        <time>2022-06-03T20:46:16Z</time>
      </trkpt>
      <trkpt lat="47.25633" lon="3.68522">
        <ele>198</ele>
        <time>2022-06-03T20:46:18Z</time>
      </trkpt>
      <trkpt lat="47.25599" lon="3.68565">
        <ele>197</ele>
        <time>2022-06-03T20:46:26Z</time>
      </trkpt>
      <trkpt lat="47.25574" lon="3.68592">
        <ele>196</ele>
        <time>2022-06-03T20:46:32Z</time>
      </trkpt>
      <trkpt lat="47.25521" lon="3.68629">
        <ele>196</ele>
        <time>2022-06-03T20:46:42Z</time>
      </trkpt>
      <trkpt lat="47.25423" lon="3.68685">
        <ele>198</ele>
        <time>2022-06-03T20:47:01Z</time>
      </trkpt>
      <trkpt lat="47.25399" lon="3.68703">
        <ele>198</ele>
        <time>2022-06-03T20:47:06Z</time>
      </trkpt>
      <trkpt lat="47.25356" lon="3.68743">
        <ele>199</ele>
        <time>2022-06-03T20:47:15Z</time>
      </trkpt>
      <trkpt lat="47.25266" lon="3.68809">
        <ele>201</ele>
        <time>2022-06-03T20:47:33Z</time>
      </trkpt>
      <trkpt lat="47.25148" lon="3.68914">
        <ele>202</ele>
        <time>2022-06-03T20:47:57Z</time>
      </trkpt>
      <trkpt lat="47.2501" lon="3.69064">
        <ele>208</ele>
        <time>2022-06-03T20:48:28Z</time>
      </trkpt>
      <trkpt lat="47.24944" lon="3.69112">
        <ele>211</ele>
        <time>2022-06-03T20:48:41Z</time>
      </trkpt>
      <trkpt lat="47.24848" lon="3.69196">
        <ele>209</ele>
        <time>2022-06-03T20:49:01Z</time>
      </trkpt>
      <trkpt lat="47.24826" lon="3.69207">
        <ele>208</ele>
        <time>2022-06-03T20:49:05Z</time>
      </trkpt>
      <trkpt lat="47.24764" lon="3.69213">
        <ele>208</ele>
        <time>2022-06-03T20:49:16Z</time>
      </trkpt>
      <trkpt lat="47.24752" lon="3.69221">
        <ele>208</ele>
        <time>2022-06-03T20:49:18Z</time>
      </trkpt>
      <trkpt lat="47.24666" lon="3.6932">
        <ele>210</ele>
        <time>2022-06-03T20:49:38Z</time>
      </trkpt>
      <trkpt lat="47.24628" lon="3.69355">
        <ele>213</ele>
        <time>2022-06-03T20:49:46Z</time>
      </trkpt>
      <trkpt lat="47.24566" lon="3.69403">
        <ele>217</ele>
        <time>2022-06-03T20:49:58Z</time>
      </trkpt>
      <trkpt lat="47.24525" lon="3.69446">
        <ele>219</ele>
        <time>2022-06-03T20:50:07Z</time>
      </trkpt>
      <trkpt lat="47.24446" lon="3.69549">
        <ele>215</ele>
        <time>2022-06-03T20:50:26Z</time>
      </trkpt>
      <trkpt lat="47.2443" lon="3.69577">
        <ele>213</ele>
        <time>2022-06-03T20:50:30Z</time>
      </trkpt>
      <trkpt lat="47.24421" lon="3.6961">
        <ele>212</ele>
        <time>2022-06-03T20:50:34Z</time>
      </trkpt>
      <trkpt lat="47.24418" lon="3.69646">
        <ele>211</ele>
        <time>2022-06-03T20:50:39Z</time>
      </trkpt>
      <trkpt lat="47.24417" lon="3.69742">
        <ele>212</ele>
        <time>2022-06-03T20:50:50Z</time>
      </trkpt>
      <trkpt lat="47.24415" lon="3.69795">
        <ele>211</ele>
        <time>2022-06-03T20:50:57Z</time>
      </trkpt>
      <trkpt lat="47.24396" lon="3.69843">
        <ele>210</ele>
        <time>2022-06-03T20:51:04Z</time>
      </trkpt>
      <trkpt lat="47.24368" lon="3.69881">
        <ele>208</ele>
        <time>2022-06-03T20:51:10Z</time>
      </trkpt>
      <trkpt lat="47.24256" lon="3.69997">
        <ele>207</ele>
        <time>2022-06-03T20:51:35Z</time>
      </trkpt>
      <trkpt lat="47.24222" lon="3.70043">
        <ele>208</ele>
        <time>2022-06-03T20:51:43Z</time>
      </trkpt>
      <trkpt lat="47.24193" lon="3.70087">
        <ele>208</ele>
        <time>2022-06-03T20:51:50Z</time>
      </trkpt>
      <trkpt lat="47.24153" lon="3.70155">
        <ele>207</ele>
        <time>2022-06-03T20:52:01Z</time>
      </trkpt>
      <trkpt lat="47.24109" lon="3.70249">
        <ele>205</ele>
        <time>2022-06-03T20:52:15Z</time>
      </trkpt>
      <trkpt lat="47.24061" lon="3.70361">
        <ele>204</ele>
        <time>2022-06-03T20:52:31Z</time>
      </trkpt>
      <trkpt lat="47.24013" lon="3.70475">
        <ele>207</ele>
        <time>2022-06-03T20:52:47Z</time>
      </trkpt>
      <trkpt lat="47.23795" lon="3.70986">
        <ele>202</ele>
        <time>2022-06-03T20:54:00Z</time>
      </trkpt>
      <trkpt lat="47.23759" lon="3.7108">
        <ele>203</ele>
        <time>2022-06-03T20:54:13Z</time>
      </trkpt>
      <trkpt lat="47.23647" lon="3.71314">
        <ele>208</ele>
        <time>2022-06-03T20:54:48Z</time>
      </trkpt>
      <trkpt lat="47.23585" lon="3.71449">
        <ele>211</ele>
        <time>2022-06-03T20:55:07Z</time>
      </trkpt>
      <trkpt lat="47.23478" lon="3.71646">
        <ele>216</ele>
        <time>2022-06-03T20:55:38Z</time>
      </trkpt>
      <trkpt lat="47.23329" lon="3.7193">
        <ele>221</ele>
        <time>2022-06-03T20:56:21Z</time>
      </trkpt>
      <trkpt lat="47.23227" lon="3.72118">
        <ele>221</ele>
        <time>2022-06-03T20:56:50Z</time>
      </trkpt>
      <trkpt lat="47.23203" lon="3.72158">
        <ele>219</ele>
        <time>2022-06-03T20:56:57Z</time>
      </trkpt>
      <trkpt lat="47.23069" lon="3.72291">
        <ele>223</ele>
        <time>2022-06-03T20:57:25Z</time>
      </trkpt>
      <trkpt lat="47.22924" lon="3.72508">
        <ele>229</ele>
        <time>2022-06-03T20:58:02Z</time>
      </trkpt>
      <trkpt lat="47.22907" lon="3.72531">
        <ele>230</ele>
        <time>2022-06-03T20:58:06Z</time>
      </trkpt>
      <trkpt lat="47.22886" lon="3.72551">
        <ele>230</ele>
        <time>2022-06-03T20:58:11Z</time>
      </trkpt>
      <trkpt lat="47.22738" lon="3.72655">
        <ele>234</ele>
        <time>2022-06-03T20:58:40Z</time>
      </trkpt>
      <trkpt lat="47.22583" lon="3.72792">
        <ele>236</ele>
        <time>2022-06-03T20:59:12Z</time>
      </trkpt>
      <trkpt lat="47.22533" lon="3.72815">
        <ele>238</ele>
        <time>2022-06-03T20:59:21Z</time>
      </trkpt>
      <trkpt lat="47.22462" lon="3.72843">
        <ele>241</ele>
        <time>2022-06-03T20:59:35Z</time>
      </trkpt>
      <trkpt lat="47.22385" lon="3.72905">
        <ele>245</ele>
        <time>2022-06-03T20:59:50Z</time>
      </trkpt>
      <trkpt lat="47.22326" lon="3.72948">
        <ele>245</ele>
        <time>2022-06-03T21:00:02Z</time>
      </trkpt>
      <trkpt lat="47.22299" lon="3.72963">
        <ele>247</ele>
        <time>2022-06-03T21:00:07Z</time>
      </trkpt>
      <trkpt lat="47.22281" lon="3.72985">
        <ele>248</ele>
        <time>2022-06-03T21:00:11Z</time>
      </trkpt>
      <trkpt lat="47.22267" lon="3.73019">
        <ele>248</ele>
        <time>2022-06-03T21:00:16Z</time>
      </trkpt>
      <trkpt lat="47.22251" lon="3.73066">
        <ele>248</ele>
        <time>2022-06-03T21:00:22Z</time>
      </trkpt>
      <trkpt lat="47.2223" lon="3.73099">
        <ele>250</ele>
        <time>2022-06-03T21:00:28Z</time>
      </trkpt>
      <trkpt lat="47.22211" lon="3.73122">
        <ele>253</ele>
        <time>2022-06-03T21:00:32Z</time>
      </trkpt>
      <trkpt lat="47.22192" lon="3.73161">
        <ele>257</ele>
        <time>2022-06-03T21:00:38Z</time>
      </trkpt>
      <trkpt lat="47.22134" lon="3.7329">
        <ele>258</ele>
        <time>2022-06-03T21:00:57Z</time>
      </trkpt>
      <trkpt lat="47.22054" lon="3.73404">
        <ele>252</ele>
        <time>2022-06-03T21:01:16Z</time>
      </trkpt>
      <trkpt lat="47.21984" lon="3.73463">
        <ele>250</ele>
        <time>2022-06-03T21:01:31Z</time>
      </trkpt>
      <trkpt lat="47.21886" lon="3.73543">
        <ele>254</ele>
        <time>2022-06-03T21:01:51Z</time>
      </trkpt>
      <trkpt lat="47.21841" lon="3.73608">
        <ele>258</ele>
        <time>2022-06-03T21:02:02Z</time>
      </trkpt>
      <trkpt lat="47.21831" lon="3.7362">
        <ele>258</ele>
        <time>2022-06-03T21:02:04Z</time>
      </trkpt>
      <trkpt lat="47.21823" lon="3.73627">
        <ele>259</ele>
        <time>2022-06-03T21:02:06Z</time>
      </trkpt>
      <trkpt lat="47.21667" lon="3.73725">
        <ele>272</ele>
        <time>2022-06-03T21:02:36Z</time>
      </trkpt>
      <trkpt lat="47.21545" lon="3.73852">
        <ele>276</ele>
        <time>2022-06-03T21:03:03Z</time>
      </trkpt>
      <trkpt lat="47.21382" lon="3.74032">
        <ele>283</ele>
        <time>2022-06-03T21:03:39Z</time>
      </trkpt>
      <trkpt lat="47.21299" lon="3.74118">
        <ele>286</ele>
        <time>2022-06-03T21:03:57Z</time>
      </trkpt>
      <trkpt lat="47.21026" lon="3.74432">
        <ele>289</ele>
        <time>2022-06-03T21:04:59Z</time>
      </trkpt>
      <trkpt lat="47.21017" lon="3.74444">
        <ele>288</ele>
        <time>2022-06-03T21:05:01Z</time>
      </trkpt>
      <trkpt lat="47.21026" lon="3.74432">
        <ele>289</ele>
        <time>2022-06-03T21:05:03Z</time>
      </trkpt>
      <trkpt lat="47.20937" lon="3.74257">
        <ele>282</ele>
        <time>2022-06-03T21:05:29Z</time>
      </trkpt>
      <trkpt lat="47.20812" lon="3.74017">
        <ele>286</ele>
        <time>2022-06-03T21:06:06Z</time>
      </trkpt>
      <trkpt lat="47.20682" lon="3.73762">
        <ele>289</ele>
        <time>2022-06-03T21:06:44Z</time>
      </trkpt>
      <trkpt lat="47.20608" lon="3.73613">
        <ele>286</ele>
        <time>2022-06-03T21:07:07Z</time>
      </trkpt>
      <trkpt lat="47.20582" lon="3.73577">
        <ele>285</ele>
        <time>2022-06-03T21:07:13Z</time>
      </trkpt>
      <trkpt lat="47.20566" lon="3.73574">
        <ele>284</ele>
        <time>2022-06-03T21:07:16Z</time>
      </trkpt>
      <trkpt lat="47.205" lon="3.73572">
        <ele>284</ele>
        <time>2022-06-03T21:07:28Z</time>
      </trkpt>
      <trkpt lat="47.20361" lon="3.73573">
        <ele>282</ele>
        <time>2022-06-03T21:07:53Z</time>
      </trkpt>
      <trkpt lat="47.20204" lon="3.73565">
        <ele>272</ele>
        <time>2022-06-03T21:08:20Z</time>
      </trkpt>
      <trkpt lat="47.20128" lon="3.73567">
        <ele>266</ele>
        <time>2022-06-03T21:08:34Z</time>
      </trkpt>
      <trkpt lat="47.20086" lon="3.73608">
        <ele>265</ele>
        <time>2022-06-03T21:08:43Z</time>
      </trkpt>
      <trkpt lat="47.19987" lon="3.73596">
        <ele>260</ele>
        <time>2022-06-03T21:09:01Z</time>
      </trkpt>
      <trkpt lat="47.19794" lon="3.73567">
        <ele>258</ele>
        <time>2022-06-03T21:09:35Z</time>
      </trkpt>
      <trkpt lat="47.19342" lon="3.73516">
        <ele>240</ele>
        <time>2022-06-03T21:10:56Z</time>
      </trkpt>
      <trkpt lat="47.19232" lon="3.73499">
        <ele>236</ele>
        <time>2022-06-03T21:11:15Z</time>
      </trkpt>
      <trkpt lat="47.19158" lon="3.73516">
        <ele>235</ele>
        <time>2022-06-03T21:11:29Z</time>
      </trkpt>
      <trkpt lat="47.18943" lon="3.73591">
        <ele>230</ele>
        <time>2022-06-03T21:12:08Z</time>
      </trkpt>
      <trkpt lat="47.18824" lon="3.73622">
        <ele>229</ele>
        <time>2022-06-03T21:12:30Z</time>
      </trkpt>
      <trkpt lat="47.18773" lon="3.73622">
        <ele>229</ele>
        <time>2022-06-03T21:12:39Z</time>
      </trkpt>
      <trkpt lat="47.18567" lon="3.73503">
        <ele>223</ele>
        <time>2022-06-03T21:13:18Z</time>
      </trkpt>
      <trkpt lat="47.18413" lon="3.73606">
        <ele>225</ele>
        <time>2022-06-03T21:13:48Z</time>
      </trkpt>
      <trkpt lat="47.18301" lon="3.73688">
        <ele>228</ele>
        <time>2022-06-03T21:14:10Z</time>
      </trkpt>
      <trkpt lat="47.18267" lon="3.73721">
        <ele>230</ele>
        <time>2022-06-03T21:14:18Z</time>
      </trkpt>
      <trkpt lat="47.18225" lon="3.73831">
        <ele>233</ele>
        <time>2022-06-03T21:14:33Z</time>
      </trkpt>
      <trkpt lat="47.18" lon="3.74178">
        <ele>230</ele>
        <time>2022-06-03T21:15:31Z</time>
      </trkpt>
      <trkpt lat="47.17876" lon="3.74265">
        <ele>229</ele>
        <time>2022-06-03T21:15:55Z</time>
      </trkpt>
      <trkpt lat="47.17692" lon="3.744">
        <ele>231</ele>
        <time>2022-06-03T21:16:32Z</time>
      </trkpt>
      <trkpt lat="47.17632" lon="3.74497">
        <ele>236</ele>
        <time>2022-06-03T21:16:48Z</time>
      </trkpt>
      <trkpt lat="47.17606" lon="3.74552">
        <ele>236</ele>
        <time>2022-06-03T21:16:56Z</time>
      </trkpt>
      <trkpt lat="47.176" lon="3.74593">
        <ele>236</ele>
        <time>2022-06-03T21:17:01Z</time>
      </trkpt>
      <trkpt lat="47.17609" lon="3.74636">
        <ele>236</ele>
        <time>2022-06-03T21:17:06Z</time>
      </trkpt>
      <trkpt lat="47.1763" lon="3.74674">
        <ele>238</ele>
        <time>2022-06-03T21:17:12Z</time>
      </trkpt>
      <trkpt lat="47.17926" lon="3.74923">
        <ele>241</ele>
        <time>2022-06-03T21:18:13Z</time>
      </trkpt>
      <trkpt lat="47.1799" lon="3.74987">
        <ele>243</ele>
        <time>2022-06-03T21:18:27Z</time>
      </trkpt>
      <trkpt lat="47.18164" lon="3.75211">
        <ele>246</ele>
        <time>2022-06-03T21:19:08Z</time>
      </trkpt>
      <trkpt lat="47.18213" lon="3.75282">
        <ele>253</ele>
        <time>2022-06-03T21:19:20Z</time>
      </trkpt>
      <trkpt lat="47.18232" lon="3.75333">
        <ele>249</ele>
        <time>2022-06-03T21:19:27Z</time>
      </trkpt>
      <trkpt lat="47.18272" lon="3.75513">
        <ele>238</ele>
        <time>2022-06-03T21:19:50Z</time>
      </trkpt>
      <trkpt lat="47.18276" lon="3.75545">
        <ele>240</ele>
        <time>2022-06-03T21:19:54Z</time>
      </trkpt>
      <trkpt lat="47.18261" lon="3.75588">
        <ele>241</ele>
        <time>2022-06-03T21:20:00Z</time>
      </trkpt>
      <trkpt lat="47.18196" lon="3.75622">
        <ele>241</ele>
        <time>2022-06-03T21:20:12Z</time>
      </trkpt>
      <trkpt lat="47.17965" lon="3.75753">
        <ele>244</ele>
        <time>2022-06-03T21:20:56Z</time>
      </trkpt>
      <trkpt lat="47.17944" lon="3.75797">
        <ele>247</ele>
        <time>2022-06-03T21:21:03Z</time>
      </trkpt>
      <trkpt lat="47.17938" lon="3.75842">
        <ele>249</ele>
        <time>2022-06-03T21:21:08Z</time>
      </trkpt>
      <trkpt lat="47.17944" lon="3.7592">
        <ele>247</ele>
        <time>2022-06-03T21:21:18Z</time>
      </trkpt>
      <trkpt lat="47.17973" lon="3.76109">
        <ele>247</ele>
        <time>2022-06-03T21:21:41Z</time>
      </trkpt>
      <trkpt lat="47.18001" lon="3.76204">
        <ele>247</ele>
        <time>2022-06-03T21:21:54Z</time>
      </trkpt>
      <trkpt lat="47.18031" lon="3.76324">
        <ele>250</ele>
        <time>2022-06-03T21:22:09Z</time>
      </trkpt>
      <trkpt lat="47.18062" lon="3.76564">
        <ele>250</ele>
        <time>2022-06-03T21:22:39Z</time>
      </trkpt>
      <trkpt lat="47.18092" lon="3.76681">
        <ele>248</ele>
        <time>2022-06-03T21:22:54Z</time>
      </trkpt>
      <trkpt lat="47.18138" lon="3.76786">
        <ele>256</ele>
        <time>2022-06-03T21:23:09Z</time>
      </trkpt>
      <trkpt lat="47.18155" lon="3.76858">
        <ele>253</ele>
        <time>2022-06-03T21:23:18Z</time>
      </trkpt>
      <trkpt lat="47.18167" lon="3.77033">
        <ele>250</ele>
        <time>2022-06-03T21:23:39Z</time>
      </trkpt>
      <trkpt lat="47.18158" lon="3.77234">
        <ele>249</ele>
        <time>2022-06-03T21:24:04Z</time>
      </trkpt>
      <trkpt lat="47.18136" lon="3.77342">
        <ele>254</ele>
        <time>2022-06-03T21:24:17Z</time>
      </trkpt>
      <trkpt lat="47.18104" lon="3.77438">
        <ele>250</ele>
        <time>2022-06-03T21:24:30Z</time>
      </trkpt>
      <trkpt lat="47.18042" lon="3.77508">
        <ele>247</ele>
        <time>2022-06-03T21:24:44Z</time>
      </trkpt>
      <trkpt lat="47.18009" lon="3.77557">
        <ele>247</ele>
        <time>2022-06-03T21:24:53Z</time>
      </trkpt>
      <trkpt lat="47.17947" lon="3.77677">
        <ele>251</ele>
        <time>2022-06-03T21:25:11Z</time>
      </trkpt>
      <trkpt lat="47.17926" lon="3.77733">
        <ele>250</ele>
        <time>2022-06-03T21:25:19Z</time>
      </trkpt>
      <trkpt lat="47.17922" lon="3.77789">
        <ele>248</ele>
        <time>2022-06-03T21:25:25Z</time>
      </trkpt>
      <trkpt lat="47.17906" lon="3.77901">
        <ele>241</ele>
        <time>2022-06-03T21:25:39Z</time>
      </trkpt>
      <trkpt lat="47.1776" lon="3.78678">
        <ele>246</ele>
        <time>2022-06-03T21:27:17Z</time>
      </trkpt>
      <trkpt lat="47.17756" lon="3.78727">
        <ele>247</ele>
        <time>2022-06-03T21:27:23Z</time>
      </trkpt>
      <trkpt lat="47.17757" lon="3.7875">
        <ele>248</ele>
        <time>2022-06-03T21:27:25Z</time>
      </trkpt>
      <trkpt lat="47.17762" lon="3.7879">
        <ele>248</ele>
        <time>2022-06-03T21:27:30Z</time>
      </trkpt>
      <trkpt lat="47.17768" lon="3.78813">
        <ele>248</ele>
        <time>2022-06-03T21:27:33Z</time>
      </trkpt>
      <trkpt lat="47.178" lon="3.78866">
        <ele>250</ele>
        <time>2022-06-03T21:27:42Z</time>
      </trkpt>
      <trkpt lat="47.17832" lon="3.78908">
        <ele>246</ele>
        <time>2022-06-03T21:27:50Z</time>
      </trkpt>
      <trkpt lat="47.17929" lon="3.79016">
        <ele>248</ele>
        <time>2022-06-03T21:28:11Z</time>
      </trkpt>
      <trkpt lat="47.17944" lon="3.79025">
        <ele>249</ele>
        <time>2022-06-03T21:28:14Z</time>
      </trkpt>
      <trkpt lat="47.17958" lon="3.79029">
        <ele>249</ele>
        <time>2022-06-03T21:28:17Z</time>
      </trkpt>
      <trkpt lat="47.17976" lon="3.79025">
        <ele>250</ele>
        <time>2022-06-03T21:28:20Z</time>
      </trkpt>
      <trkpt lat="47.1804" lon="3.78993">
        <ele>257</ele>
        <time>2022-06-03T21:28:32Z</time>
      </trkpt>
      <trkpt lat="47.18053" lon="3.78991">
        <ele>257</ele>
        <time>2022-06-03T21:28:34Z</time>
      </trkpt>
      <trkpt lat="47.18066" lon="3.78991">
        <ele>256</ele>
        <time>2022-06-03T21:28:37Z</time>
      </trkpt>
      <trkpt lat="47.18091" lon="3.79001">
        <ele>254</ele>
        <time>2022-06-03T21:28:41Z</time>
      </trkpt>
      <trkpt lat="47.18105" lon="3.79012">
        <ele>256</ele>
        <time>2022-06-03T21:28:44Z</time>
      </trkpt>
      <trkpt lat="47.18148" lon="3.79058">
        <ele>256</ele>
        <time>2022-06-03T21:28:53Z</time>
      </trkpt>
      <trkpt lat="47.1826" lon="3.79207">
        <ele>256</ele>
        <time>2022-06-03T21:29:20Z</time>
      </trkpt>
      <trkpt lat="47.18276" lon="3.79234">
        <ele>255</ele>
        <time>2022-06-03T21:29:25Z</time>
      </trkpt>
      <trkpt lat="47.18401" lon="3.79507">
        <ele>243</ele>
        <time>2022-06-03T21:30:04Z</time>
      </trkpt>
      <trkpt lat="47.1842" lon="3.79564">
        <ele>244</ele>
        <time>2022-06-03T21:30:12Z</time>
      </trkpt>
      <trkpt lat="47.18435" lon="3.79616">
        <ele>245</ele>
        <time>2022-06-03T21:30:19Z</time>
      </trkpt>
      <trkpt lat="47.18442" lon="3.79661">
        <ele>245</ele>
        <time>2022-06-03T21:30:25Z</time>
      </trkpt>
      <trkpt lat="47.18472" lon="3.79922">
        <ele>244</ele>
        <time>2022-06-03T21:30:57Z</time>
      </trkpt>
      <trkpt lat="47.18475" lon="3.79959">
        <ele>244</ele>
        <time>2022-06-03T21:31:01Z</time>
      </trkpt>
      <trkpt lat="47.18473" lon="3.79986">
        <ele>244</ele>
        <time>2022-06-03T21:31:04Z</time>
      </trkpt>
      <trkpt lat="47.18436" lon="3.80253">
        <ele>247</ele>
        <time>2022-06-03T21:31:37Z</time>
      </trkpt>
      <trkpt lat="47.18417" lon="3.80539">
        <ele>246</ele>
        <time>2022-06-03T21:32:12Z</time>
      </trkpt>
      <trkpt lat="47.18381" lon="3.80952">
        <ele>250</ele>
        <time>2022-06-03T21:33:02Z</time>
      </trkpt>
      <trkpt lat="47.18378" lon="3.8102">
        <ele>250</ele>
        <time>2022-06-03T21:33:11Z</time>
      </trkpt>
      <trkpt lat="47.18383" lon="3.81081">
        <ele>250</ele>
        <time>2022-06-03T21:33:18Z</time>
      </trkpt>
      <trkpt lat="47.18441" lon="3.81392">
        <ele>250</ele>
        <time>2022-06-03T21:33:57Z</time>
      </trkpt>
      <trkpt lat="47.18486" lon="3.81718">
        <ele>257</ele>
        <time>2022-06-03T21:34:37Z</time>
      </trkpt>
      <trkpt lat="47.18487" lon="3.81744">
        <ele>257</ele>
        <time>2022-06-03T21:34:40Z</time>
      </trkpt>
      <trkpt lat="47.18487" lon="3.81759">
        <ele>258</ele>
        <time>2022-06-03T21:34:42Z</time>
      </trkpt>
      <trkpt lat="47.18475" lon="3.81822">
        <ele>259</ele>
        <time>2022-06-03T21:34:50Z</time>
      </trkpt>
      <trkpt lat="47.1847" lon="3.81899">
        <ele>262</ele>
        <time>2022-06-03T21:35:00Z</time>
      </trkpt>
      <trkpt lat="47.18468" lon="3.81913">
        <ele>262</ele>
        <time>2022-06-03T21:35:01Z</time>
      </trkpt>
      <trkpt lat="47.18474" lon="3.81946">
        <ele>265</ele>
        <time>2022-06-03T21:35:05Z</time>
      </trkpt>
      <trkpt lat="47.18474" lon="3.81969">
        <ele>267</ele>
        <time>2022-06-03T21:35:08Z</time>
      </trkpt>
      <trkpt lat="47.18468" lon="3.8202">
        <ele>270</ele>
        <time>2022-06-03T21:35:14Z</time>
      </trkpt>
      <trkpt lat="47.18468" lon="3.82031">
        <ele>271</ele>
        <time>2022-06-03T21:35:16Z</time>
      </trkpt>
      <trkpt lat="47.18472" lon="3.82039">
        <ele>271</ele>
        <time>2022-06-03T21:35:17Z</time>
      </trkpt>
      <trkpt lat="47.18477" lon="3.82047">
        <ele>273</ele>
        <time>2022-06-03T21:35:18Z</time>
      </trkpt>
      <trkpt lat="47.18481" lon="3.82055">
        <ele>273</ele>
        <time>2022-06-03T21:35:19Z</time>
      </trkpt>
      <trkpt lat="47.18482" lon="3.82066">
        <ele>274</ele>
        <time>2022-06-03T21:35:21Z</time>
      </trkpt>
      <trkpt lat="47.18477" lon="3.82076">
        <ele>274</ele>
        <time>2022-06-03T21:35:22Z</time>
      </trkpt>
      <trkpt lat="47.18462" lon="3.82093">
        <ele>273</ele>
        <time>2022-06-03T21:35:26Z</time>
      </trkpt>
      <trkpt lat="47.18448" lon="3.82117">
        <ele>273</ele>
        <time>2022-06-03T21:35:30Z</time>
      </trkpt>
      <trkpt lat="47.18433" lon="3.82166">
        <ele>275</ele>
        <time>2022-06-03T21:35:36Z</time>
      </trkpt>
      <trkpt lat="47.18427" lon="3.82199">
        <ele>274</ele>
        <time>2022-06-03T21:35:40Z</time>
      </trkpt>
      <trkpt lat="47.18427" lon="3.82225">
        <ele>275</ele>
        <time>2022-06-03T21:35:43Z</time>
      </trkpt>
      <trkpt lat="47.1843" lon="3.82256">
        <ele>275</ele>
        <time>2022-06-03T21:35:47Z</time>
      </trkpt>
      <trkpt lat="47.18458" lon="3.82384">
        <ele>273</ele>
        <time>2022-06-03T21:36:03Z</time>
      </trkpt>
      <trkpt lat="47.18486" lon="3.82525">
        <ele>270</ele>
        <time>2022-06-03T21:36:21Z</time>
      </trkpt>
      <trkpt lat="47.18495" lon="3.82552">
        <ele>270</ele>
        <time>2022-06-03T21:36:25Z</time>
      </trkpt>
      <trkpt lat="47.18514" lon="3.82587">
        <ele>272</ele>
        <time>2022-06-03T21:36:30Z</time>
      </trkpt>
      <trkpt lat="47.18535" lon="3.82635">
        <ele>275</ele>
        <time>2022-06-03T21:36:37Z</time>
      </trkpt>
      <trkpt lat="47.18579" lon="3.8272">
        <ele>282</ele>
        <time>2022-06-03T21:36:50Z</time>
      </trkpt>
      <trkpt lat="47.18598" lon="3.82768">
        <ele>285</ele>
        <time>2022-06-03T21:36:57Z</time>
      </trkpt>
      <trkpt lat="47.18612" lon="3.82825">
        <ele>285</ele>
        <time>2022-06-03T21:37:04Z</time>
      </trkpt>
      <trkpt lat="47.1862" lon="3.82844">
        <ele>285</ele>
        <time>2022-06-03T21:37:07Z</time>
      </trkpt>
      <trkpt lat="47.18633" lon="3.82855">
        <ele>286</ele>
        <time>2022-06-03T21:37:09Z</time>
      </trkpt>
      <trkpt lat="47.18649" lon="3.82862">
        <ele>287</ele>
        <time>2022-06-03T21:37:12Z</time>
      </trkpt>
      <trkpt lat="47.1865" lon="3.82887">
        <ele>286</ele>
        <time>2022-06-03T21:37:15Z</time>
      </trkpt>
      <trkpt lat="47.18652" lon="3.82895">
        <ele>286</ele>
        <time>2022-06-03T21:37:16Z</time>
      </trkpt>
      <trkpt lat="47.18658" lon="3.82906">
        <ele>286</ele>
        <time>2022-06-03T21:37:18Z</time>
      </trkpt>
      <trkpt lat="47.18652" lon="3.82895">
        <ele>286</ele>
        <time>2022-06-03T21:37:20Z</time>
      </trkpt>
      <trkpt lat="47.1865" lon="3.82887">
        <ele>286</ele>
        <time>2022-06-03T21:37:21Z</time>
      </trkpt>
      <trkpt lat="47.18649" lon="3.82862">
        <ele>287</ele>
        <time>2022-06-03T21:37:24Z</time>
      </trkpt>
      <trkpt lat="47.18676" lon="3.82877">
        <ele>288</ele>
        <time>2022-06-03T21:37:29Z</time>
      </trkpt>
      <trkpt lat="47.18731" lon="3.8293">
        <ele>285</ele>
        <time>2022-06-03T21:37:41Z</time>
      </trkpt>
      <trkpt lat="47.1875" lon="3.82953">
        <ele>283</ele>
        <time>2022-06-03T21:37:45Z</time>
      </trkpt>
      <trkpt lat="47.18778" lon="3.82999">
        <ele>283</ele>
        <time>2022-06-03T21:37:53Z</time>
      </trkpt>
      <trkpt lat="47.18799" lon="3.83026">
        <ele>283</ele>
        <time>2022-06-03T21:37:58Z</time>
      </trkpt>
      <trkpt lat="47.18837" lon="3.83065">
        <ele>284</ele>
        <time>2022-06-03T21:38:06Z</time>
      </trkpt>
      <trkpt lat="47.18865" lon="3.83078">
        <ele>283</ele>
        <time>2022-06-03T21:38:11Z</time>
      </trkpt>
      <trkpt lat="47.18978" lon="3.83114">
        <ele>287</ele>
        <time>2022-06-03T21:38:32Z</time>
      </trkpt>
      <trkpt lat="47.18991" lon="3.83121">
        <ele>288</ele>
        <time>2022-06-03T21:38:34Z</time>
      </trkpt>
      <trkpt lat="47.19001" lon="3.83129">
        <ele>289</ele>
        <time>2022-06-03T21:38:36Z</time>
      </trkpt>
      <trkpt lat="47.19032" lon="3.83175">
        <ele>296</ele>
        <time>2022-06-03T21:38:44Z</time>
      </trkpt>
      <trkpt lat="47.19049" lon="3.83205">
        <ele>299</ele>
        <time>2022-06-03T21:38:49Z</time>
      </trkpt>
      <trkpt lat="47.19123" lon="3.83298">
        <ele>303</ele>
        <time>2022-06-03T21:39:06Z</time>
      </trkpt>
      <trkpt lat="47.19157" lon="3.83349">
        <ele>301</ele>
        <time>2022-06-03T21:39:15Z</time>
      </trkpt>
      <trkpt lat="47.19167" lon="3.83376">
        <ele>298</ele>
        <time>2022-06-03T21:39:18Z</time>
      </trkpt>
      <trkpt lat="47.19171" lon="3.83406">
        <ele>296</ele>
        <time>2022-06-03T21:39:22Z</time>
      </trkpt>
      <trkpt lat="47.19171" lon="3.83433">
        <ele>296</ele>
        <time>2022-06-03T21:39:25Z</time>
      </trkpt>
      <trkpt lat="47.19177" lon="3.83459">
        <ele>297</ele>
        <time>2022-06-03T21:39:29Z</time>
      </trkpt>
      <trkpt lat="47.19182" lon="3.83475">
        <ele>298</ele>
        <time>2022-06-03T21:39:31Z</time>
      </trkpt>
      <trkpt lat="47.19204" lon="3.83521">
        <ele>303</ele>
        <time>2022-06-03T21:39:37Z</time>
      </trkpt>
      <trkpt lat="47.19208" lon="3.83543">
        <ele>304</ele>
        <time>2022-06-03T21:39:40Z</time>
      </trkpt>
      <trkpt lat="47.19211" lon="3.83572">
        <ele>305</ele>
        <time>2022-06-03T21:39:44Z</time>
      </trkpt>
      <trkpt lat="47.19218" lon="3.83721">
        <ele>312</ele>
        <time>2022-06-03T21:40:02Z</time>
      </trkpt>
      <trkpt lat="47.19223" lon="3.83741">
        <ele>312</ele>
        <time>2022-06-03T21:40:04Z</time>
      </trkpt>
      <trkpt lat="47.19231" lon="3.83758">
        <ele>312</ele>
        <time>2022-06-03T21:40:07Z</time>
      </trkpt>
      <trkpt lat="47.19352" lon="3.83902">
        <ele>322</ele>
        <time>2022-06-03T21:40:35Z</time>
      </trkpt>
      <trkpt lat="47.19371" lon="3.83907">
        <ele>324</ele>
        <time>2022-06-03T21:40:38Z</time>
      </trkpt>
      <trkpt lat="47.19382" lon="3.83907">
        <ele>325</ele>
        <time>2022-06-03T21:40:40Z</time>
      </trkpt>
      <trkpt lat="47.19397" lon="3.83905">
        <ele>327</ele>
        <time>2022-06-03T21:40:43Z</time>
      </trkpt>
      <trkpt lat="47.19417" lon="3.83896">
        <ele>331</ele>
        <time>2022-06-03T21:40:46Z</time>
      </trkpt>
      <trkpt lat="47.19432" lon="3.83893">
        <ele>332</ele>
        <time>2022-06-03T21:40:49Z</time>
      </trkpt>
      <trkpt lat="47.19463" lon="3.83893">
        <ele>336</ele>
        <time>2022-06-03T21:40:55Z</time>
      </trkpt>
      <trkpt lat="47.19562" lon="3.8392">
        <ele>346</ele>
        <time>2022-06-03T21:41:13Z</time>
      </trkpt>
      <trkpt lat="47.19575" lon="3.83926">
        <ele>348</ele>
        <time>2022-06-03T21:41:15Z</time>
      </trkpt>
      <trkpt lat="47.19588" lon="3.8394">
        <ele>349</ele>
        <time>2022-06-03T21:41:18Z</time>
      </trkpt>
      <trkpt lat="47.19599" lon="3.83982">
        <ele>348</ele>
        <time>2022-06-03T21:41:23Z</time>
      </trkpt>
      <trkpt lat="47.19619" lon="3.84115">
        <ele>351</ele>
        <time>2022-06-03T21:41:40Z</time>
      </trkpt>
      <trkpt lat="47.19655" lon="3.84285">
        <ele>360</ele>
        <time>2022-06-03T21:42:01Z</time>
      </trkpt>
      <trkpt lat="47.19664" lon="3.84315">
        <ele>362</ele>
        <time>2022-06-03T21:42:05Z</time>
      </trkpt>
      <trkpt lat="47.19678" lon="3.84341">
        <ele>363</ele>
        <time>2022-06-03T21:42:09Z</time>
      </trkpt>
      <trkpt lat="47.19694" lon="3.84361">
        <ele>365</ele>
        <time>2022-06-03T21:42:13Z</time>
      </trkpt>
      <trkpt lat="47.19757" lon="3.84421">
        <ele>373</ele>
        <time>2022-06-03T21:42:26Z</time>
      </trkpt>
      <trkpt lat="47.19784" lon="3.84451">
        <ele>375</ele>
        <time>2022-06-03T21:42:32Z</time>
      </trkpt>
      <trkpt lat="47.19901" lon="3.84607">
        <ele>391</ele>
        <time>2022-06-03T21:43:00Z</time>
      </trkpt>
      <trkpt lat="47.19911" lon="3.84623">
        <ele>393</ele>
        <time>2022-06-03T21:43:03Z</time>
      </trkpt>
      <trkpt lat="47.19918" lon="3.84647">
        <ele>395</ele>
        <time>2022-06-03T21:43:06Z</time>
      </trkpt>
      <trkpt lat="47.19933" lon="3.84719">
        <ele>396</ele>
        <time>2022-06-03T21:43:15Z</time>
      </trkpt>
      <trkpt lat="47.19952" lon="3.84791">
        <ele>393</ele>
        <time>2022-06-03T21:43:25Z</time>
      </trkpt>
      <trkpt lat="47.19958" lon="3.84808">
        <ele>391</ele>
        <time>2022-06-03T21:43:27Z</time>
      </trkpt>
      <trkpt lat="47.19968" lon="3.8482">
        <ele>390</ele>
        <time>2022-06-03T21:43:29Z</time>
      </trkpt>
      <trkpt lat="47.19979" lon="3.84827">
        <ele>389</ele>
        <time>2022-06-03T21:43:31Z</time>
      </trkpt>
      <trkpt lat="47.19991" lon="3.8483">
        <ele>389</ele>
        <time>2022-06-03T21:43:34Z</time>
      </trkpt>
      <trkpt lat="47.20003" lon="3.84825">
        <ele>389</ele>
        <time>2022-06-03T21:43:36Z</time>
      </trkpt>
      <trkpt lat="47.2003" lon="3.8481">
        <ele>389</ele>
        <time>2022-06-03T21:43:41Z</time>
      </trkpt>
      <trkpt lat="47.2004" lon="3.84809">
        <ele>388</ele>
        <time>2022-06-03T21:43:43Z</time>
      </trkpt>
      <trkpt lat="47.20051" lon="3.84813">
        <ele>387</ele>
        <time>2022-06-03T21:43:45Z</time>
      </trkpt>
      <trkpt lat="47.20074" lon="3.84815">
        <ele>386</ele>
        <time>2022-06-03T21:43:49Z</time>
      </trkpt>
      <trkpt lat="47.20093" lon="3.84813">
        <ele>387</ele>
        <time>2022-06-03T21:43:52Z</time>
      </trkpt>
      <trkpt lat="47.20105" lon="3.84815">
        <ele>388</ele>
        <time>2022-06-03T21:43:54Z</time>
      </trkpt>
      <trkpt lat="47.20113" lon="3.84824">
        <ele>388</ele>
        <time>2022-06-03T21:43:56Z</time>
      </trkpt>
      <trkpt lat="47.20118" lon="3.84843">
        <ele>386</ele>
        <time>2022-06-03T21:43:59Z</time>
      </trkpt>
      <trkpt lat="47.2013" lon="3.8499">
        <ele>371</ele>
        <time>2022-06-03T21:44:17Z</time>
      </trkpt>
      <trkpt lat="47.20139" lon="3.85015">
        <ele>368</ele>
        <time>2022-06-03T21:44:20Z</time>
      </trkpt>
      <trkpt lat="47.20154" lon="3.85046">
        <ele>366</ele>
        <time>2022-06-03T21:44:25Z</time>
      </trkpt>
      <trkpt lat="47.20183" lon="3.85098">
        <ele>361</ele>
        <time>2022-06-03T21:44:33Z</time>
      </trkpt>
      <trkpt lat="47.20223" lon="3.85161">
        <ele>358</ele>
        <time>2022-06-03T21:44:43Z</time>
      </trkpt>
      <trkpt lat="47.20243" lon="3.85203">
        <ele>358</ele>
        <time>2022-06-03T21:44:49Z</time>
      </trkpt>
      <trkpt lat="47.20257" lon="3.85228">
        <ele>357</ele>
        <time>2022-06-03T21:44:53Z</time>
      </trkpt>
      <trkpt lat="47.20316" lon="3.85323">
        <ele>348</ele>
        <time>2022-06-03T21:45:09Z</time>
      </trkpt>
      <trkpt lat="47.20369" lon="3.85432">
        <ele>348</ele>
        <time>2022-06-03T21:45:25Z</time>
      </trkpt>
      <trkpt lat="47.20381" lon="3.85466">
        <ele>349</ele>
        <time>2022-06-03T21:45:30Z</time>
      </trkpt>
      <trkpt lat="47.20389" lon="3.8548">
        <ele>348</ele>
        <time>2022-06-03T21:45:32Z</time>
      </trkpt>
      <trkpt lat="47.20421" lon="3.85505">
        <ele>344</ele>
        <time>2022-06-03T21:45:38Z</time>
      </trkpt>
      <trkpt lat="47.20436" lon="3.85522">
        <ele>345</ele>
        <time>2022-06-03T21:45:42Z</time>
      </trkpt>
      <trkpt lat="47.2046" lon="3.8556">
        <ele>347</ele>
        <time>2022-06-03T21:45:48Z</time>
      </trkpt>
      <trkpt lat="47.20492" lon="3.85585">
        <ele>349</ele>
        <time>2022-06-03T21:45:54Z</time>
      </trkpt>
      <trkpt lat="47.20536" lon="3.856">
        <ele>354</ele>
        <time>2022-06-03T21:46:02Z</time>
      </trkpt>
      <trkpt lat="47.2059" lon="3.85605">
        <ele>360</ele>
        <time>2022-06-03T21:46:12Z</time>
      </trkpt>
      <trkpt lat="47.20658" lon="3.856">
        <ele>368</ele>
        <time>2022-06-03T21:46:24Z</time>
      </trkpt>
      <trkpt lat="47.20687" lon="3.85606">
        <ele>371</ele>
        <time>2022-06-03T21:46:29Z</time>
      </trkpt>
      <trkpt lat="47.20719" lon="3.85616">
        <ele>374</ele>
        <time>2022-06-03T21:46:35Z</time>
      </trkpt>
      <trkpt lat="47.20707" lon="3.85632">
        <ele>373</ele>
        <time>2022-06-03T21:46:38Z</time>
      </trkpt>
      <trkpt lat="47.20698" lon="3.85688">
        <ele>372</ele>
        <time>2022-06-03T21:46:45Z</time>
      </trkpt>
      <trkpt lat="47.20707" lon="3.85632">
        <ele>373</ele>
        <time>2022-06-03T21:46:52Z</time>
      </trkpt>
      <trkpt lat="47.20719" lon="3.85616">
        <ele>374</ele>
        <time>2022-06-03T21:46:55Z</time>
      </trkpt>
      <trkpt lat="47.20738" lon="3.85603">
        <ele>376</ele>
        <time>2022-06-03T21:46:59Z</time>
      </trkpt>
      <trkpt lat="47.20752" lon="3.85558">
        <ele>377</ele>
        <time>2022-06-03T21:47:05Z</time>
      </trkpt>
      <trkpt lat="47.2078" lon="3.85388">
        <ele>370</ele>
        <time>2022-06-03T21:47:26Z</time>
      </trkpt>
      <trkpt lat="47.20786" lon="3.85374">
        <ele>369</ele>
        <time>2022-06-03T21:47:28Z</time>
      </trkpt>
      <trkpt lat="47.20793" lon="3.85365">
        <ele>368</ele>
        <time>2022-06-03T21:47:29Z</time>
      </trkpt>
      <trkpt lat="47.20801" lon="3.85361">
        <ele>367</ele>
        <time>2022-06-03T21:47:31Z</time>
      </trkpt>
      <trkpt lat="47.20878" lon="3.85373">
        <ele>368</ele>
        <time>2022-06-03T21:47:45Z</time>
      </trkpt>
      <trkpt lat="47.20908" lon="3.85367">
        <ele>368</ele>
        <time>2022-06-03T21:47:50Z</time>
      </trkpt>
      <trkpt lat="47.20953" lon="3.85329">
        <ele>364</ele>
        <time>2022-06-03T21:47:59Z</time>
      </trkpt>
      <trkpt lat="47.20971" lon="3.85317">
        <ele>362</ele>
        <time>2022-06-03T21:48:03Z</time>
      </trkpt>
      <trkpt lat="47.21021" lon="3.85307">
        <ele>363</ele>
        <time>2022-06-03T21:48:12Z</time>
      </trkpt>
      <trkpt lat="47.21123" lon="3.85236">
        <ele>357</ele>
        <time>2022-06-03T21:48:32Z</time>
      </trkpt>
      <trkpt lat="47.21144" lon="3.85237">
        <ele>357</ele>
        <time>2022-06-03T21:48:36Z</time>
      </trkpt>
      <trkpt lat="47.21181" lon="3.8523">
        <ele>356</ele>
        <time>2022-06-03T21:48:42Z</time>
      </trkpt>
      <trkpt lat="47.21222" lon="3.85211">
        <ele>352</ele>
        <time>2022-06-03T21:48:50Z</time>
      </trkpt>
      <trkpt lat="47.21253" lon="3.85204">
        <ele>351</ele>
        <time>2022-06-03T21:48:55Z</time>
      </trkpt>
      <trkpt lat="47.2128" lon="3.85206">
        <ele>349</ele>
        <time>2022-06-03T21:49:00Z</time>
      </trkpt>
      <trkpt lat="47.21314" lon="3.85217">
        <ele>349</ele>
        <time>2022-06-03T21:49:06Z</time>
      </trkpt>
      <trkpt lat="47.21351" lon="3.85239">
        <ele>352</ele>
        <time>2022-06-03T21:49:14Z</time>
      </trkpt>
      <trkpt lat="47.21375" lon="3.85248">
        <ele>352</ele>
        <time>2022-06-03T21:49:18Z</time>
      </trkpt>
      <trkpt lat="47.21393" lon="3.85251">
        <ele>351</ele>
        <time>2022-06-03T21:49:21Z</time>
      </trkpt>
      <trkpt lat="47.21431" lon="3.85225">
        <ele>346</ele>
        <time>2022-06-03T21:49:29Z</time>
      </trkpt>
      <trkpt lat="47.2145" lon="3.85216">
        <ele>345</ele>
        <time>2022-06-03T21:49:32Z</time>
      </trkpt>
      <trkpt lat="47.2147" lon="3.85218">
        <ele>345</ele>
        <time>2022-06-03T21:49:36Z</time>
      </trkpt>
      <trkpt lat="47.21506" lon="3.85211">
        <ele>344</ele>
        <time>2022-06-03T21:49:42Z</time>
      </trkpt>
      <trkpt lat="47.21545" lon="3.85178">
        <ele>342</ele>
        <time>2022-06-03T21:49:50Z</time>
      </trkpt>
      <trkpt lat="47.21593" lon="3.85105">
        <ele>338</ele>
        <time>2022-06-03T21:50:02Z</time>
      </trkpt>
      <trkpt lat="47.21616" lon="3.8506">
        <ele>334</ele>
        <time>2022-06-03T21:50:09Z</time>
      </trkpt>
      <trkpt lat="47.21669" lon="3.84898">
        <ele>328</ele>
        <time>2022-06-03T21:50:31Z</time>
      </trkpt>
      <trkpt lat="47.21681" lon="3.84852">
        <ele>326</ele>
        <time>2022-06-03T21:50:37Z</time>
      </trkpt>
      <trkpt lat="47.21685" lon="3.84794">
        <ele>327</ele>
        <time>2022-06-03T21:50:44Z</time>
      </trkpt>
      <trkpt lat="47.21683" lon="3.84771">
        <ele>327</ele>
        <time>2022-06-03T21:50:47Z</time>
      </trkpt>
      <trkpt lat="47.2168" lon="3.84745">
        <ele>328</ele>
        <time>2022-06-03T21:50:50Z</time>
      </trkpt>
      <trkpt lat="47.2167" lon="3.84705">
        <ele>327</ele>
        <time>2022-06-03T21:50:55Z</time>
      </trkpt>
      <trkpt lat="47.2167" lon="3.84657">
        <ele>326</ele>
        <time>2022-06-03T21:51:01Z</time>
      </trkpt>
      <trkpt lat="47.21673" lon="3.8464">
        <ele>324</ele>
        <time>2022-06-03T21:51:03Z</time>
      </trkpt>
      <trkpt lat="47.2168" lon="3.84616">
        <ele>322</ele>
        <time>2022-06-03T21:51:06Z</time>
      </trkpt>
      <trkpt lat="47.21718" lon="3.84548">
        <ele>319</ele>
        <time>2022-06-03T21:51:17Z</time>
      </trkpt>
      <trkpt lat="47.21758" lon="3.84484">
        <ele>316</ele>
        <time>2022-06-03T21:51:27Z</time>
      </trkpt>
      <trkpt lat="47.21775" lon="3.84453">
        <ele>315</ele>
        <time>2022-06-03T21:51:32Z</time>
      </trkpt>
      <trkpt lat="47.21794" lon="3.84409">
        <ele>314</ele>
        <time>2022-06-03T21:51:38Z</time>
      </trkpt>
      <trkpt lat="47.2182" lon="3.84325">
        <ele>309</ele>
        <time>2022-06-03T21:51:50Z</time>
      </trkpt>
      <trkpt lat="47.21828" lon="3.84309">
        <ele>308</ele>
        <time>2022-06-03T21:51:52Z</time>
      </trkpt>
      <trkpt lat="47.21877" lon="3.84246">
        <ele>303</ele>
        <time>2022-06-03T21:52:04Z</time>
      </trkpt>
      <trkpt lat="47.21913" lon="3.84207">
        <ele>301</ele>
        <time>2022-06-03T21:52:12Z</time>
      </trkpt>
      <trkpt lat="47.21935" lon="3.84191">
        <ele>298</ele>
        <time>2022-06-03T21:52:16Z</time>
      </trkpt>
      <trkpt lat="47.21949" lon="3.84184">
        <ele>296</ele>
        <time>2022-06-03T21:52:19Z</time>
      </trkpt>
      <trkpt lat="47.2197" lon="3.84183">
        <ele>295</ele>
        <time>2022-06-03T21:52:22Z</time>
      </trkpt>
      <trkpt lat="47.21986" lon="3.84194">
        <ele>295</ele>
        <time>2022-06-03T21:52:25Z</time>
      </trkpt>
      <trkpt lat="47.21996" lon="3.8421">
        <ele>296</ele>
        <time>2022-06-03T21:52:28Z</time>
      </trkpt>
      <trkpt lat="47.2201" lon="3.84225">
        <ele>297</ele>
        <time>2022-06-03T21:52:31Z</time>
      </trkpt>
      <trkpt lat="47.22016" lon="3.84228">
        <ele>297</ele>
        <time>2022-06-03T21:52:32Z</time>
      </trkpt>
      <trkpt lat="47.22027" lon="3.84229">
        <ele>297</ele>
        <time>2022-06-03T21:52:34Z</time>
      </trkpt>
      <trkpt lat="47.22051" lon="3.8422">
        <ele>296</ele>
        <time>2022-06-03T21:52:39Z</time>
      </trkpt>
      <trkpt lat="47.22063" lon="3.84215">
        <ele>296</ele>
        <time>2022-06-03T21:52:41Z</time>
      </trkpt>
      <trkpt lat="47.22068" lon="3.8421">
        <ele>295</ele>
        <time>2022-06-03T21:52:42Z</time>
      </trkpt>
      <trkpt lat="47.22158" lon="3.84089">
        <ele>291</ele>
        <time>2022-06-03T21:53:04Z</time>
      </trkpt>
      <trkpt lat="47.22175" lon="3.84059">
        <ele>292</ele>
        <time>2022-06-03T21:53:08Z</time>
      </trkpt>
      <trkpt lat="47.22218" lon="3.83963">
        <ele>297</ele>
        <time>2022-06-03T21:53:22Z</time>
      </trkpt>
      <trkpt lat="47.22251" lon="3.83912">
        <ele>298</ele>
        <time>2022-06-03T21:53:31Z</time>
      </trkpt>
      <trkpt lat="47.22278" lon="3.83872">
        <ele>296</ele>
        <time>2022-06-03T21:53:38Z</time>
      </trkpt>
      <trkpt lat="47.22297" lon="3.8384">
        <ele>293</ele>
        <time>2022-06-03T21:53:43Z</time>
      </trkpt>
      <trkpt lat="47.22327" lon="3.83775">
        <ele>289</ele>
        <time>2022-06-03T21:53:52Z</time>
      </trkpt>
      <trkpt lat="47.22338" lon="3.83744">
        <ele>288</ele>
        <time>2022-06-03T21:53:56Z</time>
      </trkpt>
      <trkpt lat="47.22344" lon="3.83714">
        <ele>288</ele>
        <time>2022-06-03T21:54:00Z</time>
      </trkpt>
      <trkpt lat="47.22349" lon="3.83662">
        <ele>288</ele>
        <time>2022-06-03T21:54:07Z</time>
      </trkpt>
      <trkpt lat="47.22355" lon="3.83629">
        <ele>291</ele>
        <time>2022-06-03T21:54:11Z</time>
      </trkpt>
      <trkpt lat="47.22365" lon="3.83618">
        <ele>292</ele>
        <time>2022-06-03T21:54:13Z</time>
      </trkpt>
      <trkpt lat="47.22381" lon="3.83612">
        <ele>293</ele>
        <time>2022-06-03T21:54:16Z</time>
      </trkpt>
      <trkpt lat="47.22417" lon="3.83618">
        <ele>292</ele>
        <time>2022-06-03T21:54:22Z</time>
      </trkpt>
      <trkpt lat="47.22442" lon="3.83619">
        <ele>290</ele>
        <time>2022-06-03T21:54:27Z</time>
      </trkpt>
      <trkpt lat="47.2246" lon="3.83605">
        <ele>290</ele>
        <time>2022-06-03T21:54:30Z</time>
      </trkpt>
      <trkpt lat="47.22472" lon="3.83577">
        <ele>290</ele>
        <time>2022-06-03T21:54:34Z</time>
      </trkpt>
      <trkpt lat="47.22503" lon="3.83395">
        <ele>292</ele>
        <time>2022-06-03T21:54:57Z</time>
      </trkpt>
      <trkpt lat="47.22519" lon="3.83328">
        <ele>290</ele>
        <time>2022-06-03T21:55:06Z</time>
      </trkpt>
      <trkpt lat="47.22554" lon="3.83251">
        <ele>285</ele>
        <time>2022-06-03T21:55:17Z</time>
      </trkpt>
      <trkpt lat="47.22617" lon="3.83086">
        <ele>276</ele>
        <time>2022-06-03T21:55:40Z</time>
      </trkpt>
      <trkpt lat="47.22724" lon="3.82787">
        <ele>266</ele>
        <time>2022-06-03T21:56:21Z</time>
      </trkpt>
      <trkpt lat="47.22738" lon="3.82763">
        <ele>265</ele>
        <time>2022-06-03T21:56:24Z</time>
      </trkpt>
      <trkpt lat="47.22751" lon="3.82745">
        <ele>264</ele>
        <time>2022-06-03T21:56:28Z</time>
      </trkpt>
      <trkpt lat="47.22859" lon="3.82658">
        <ele>263</ele>
        <time>2022-06-03T21:56:49Z</time>
      </trkpt>
      <trkpt lat="47.22898" lon="3.82633">
        <ele>264</ele>
        <time>2022-06-03T21:56:57Z</time>
      </trkpt>
      <trkpt lat="47.22908" lon="3.82616">
        <ele>264</ele>
        <time>2022-06-03T21:57:00Z</time>
      </trkpt>
      <trkpt lat="47.22915" lon="3.82611">
        <ele>264</ele>
        <time>2022-06-03T21:57:01Z</time>
      </trkpt>
      <trkpt lat="47.22926" lon="3.82607">
        <ele>265</ele>
        <time>2022-06-03T21:57:03Z</time>
      </trkpt>
      <trkpt lat="47.23188" lon="3.82397">
        <ele>284</ele>
        <time>2022-06-03T21:57:56Z</time>
      </trkpt>
      <trkpt lat="47.23221" lon="3.82371">
        <ele>286</ele>
        <time>2022-06-03T21:58:03Z</time>
      </trkpt>
      <trkpt lat="47.23233" lon="3.82363">
        <ele>287</ele>
        <time>2022-06-03T21:58:05Z</time>
      </trkpt>
      <trkpt lat="47.23251" lon="3.82356">
        <ele>288</ele>
        <time>2022-06-03T21:58:09Z</time>
      </trkpt>
      <trkpt lat="47.23276" lon="3.82352">
        <ele>287</ele>
        <time>2022-06-03T21:58:13Z</time>
      </trkpt>
      <trkpt lat="47.23385" lon="3.82358">
        <ele>280</ele>
        <time>2022-06-03T21:58:32Z</time>
      </trkpt>
      <trkpt lat="47.23417" lon="3.82354">
        <ele>276</ele>
        <time>2022-06-03T21:58:38Z</time>
      </trkpt>
      <trkpt lat="47.23445" lon="3.82343">
        <ele>276</ele>
        <time>2022-06-03T21:58:43Z</time>
      </trkpt>
      <trkpt lat="47.23478" lon="3.82321">
        <ele>274</ele>
        <time>2022-06-03T21:58:50Z</time>
      </trkpt>
      <trkpt lat="47.23512" lon="3.82275">
        <ele>272</ele>
        <time>2022-06-03T21:58:58Z</time>
      </trkpt>
      <trkpt lat="47.23534" lon="3.82238">
        <ele>271</ele>
        <time>2022-06-03T21:59:04Z</time>
      </trkpt>
      <trkpt lat="47.23549" lon="3.82218">
        <ele>270</ele>
        <time>2022-06-03T21:59:07Z</time>
      </trkpt>
      <trkpt lat="47.23596" lon="3.82173">
        <ele>265</ele>
        <time>2022-06-03T21:59:17Z</time>
      </trkpt>
      <trkpt lat="47.23618" lon="3.82142">
        <ele>264</ele>
        <time>2022-06-03T21:59:23Z</time>
      </trkpt>
      <trkpt lat="47.2378" lon="3.81829">
        <ele>259</ele>
        <time>2022-06-03T22:00:10Z</time>
      </trkpt>
      <trkpt lat="47.23879" lon="3.81644">
        <ele>256</ele>
        <time>2022-06-03T22:00:39Z</time>
      </trkpt>
      <trkpt lat="47.23915" lon="3.81594">
        <ele>256</ele>
        <time>2022-06-03T22:00:48Z</time>
      </trkpt>
      <trkpt lat="47.23989" lon="3.81507">
        <ele>258</ele>
        <time>2022-06-03T22:01:05Z</time>
      </trkpt>
      <trkpt lat="47.24066" lon="3.81411">
        <ele>259</ele>
        <time>2022-06-03T22:01:22Z</time>
      </trkpt>
      <trkpt lat="47.24065" lon="3.81402">
        <ele>259</ele>
        <time>2022-06-03T22:01:24Z</time>
      </trkpt>
      <trkpt lat="47.24068" lon="3.81381">
        <ele>259</ele>
        <time>2022-06-03T22:01:26Z</time>
      </trkpt>
      <trkpt lat="47.24134" lon="3.80997">
        <ele>263</ele>
        <time>2022-06-03T22:02:14Z</time>
      </trkpt>
      <trkpt lat="47.24135" lon="3.80975">
        <ele>264</ele>
        <time>2022-06-03T22:02:17Z</time>
      </trkpt>
      <trkpt lat="47.24134" lon="3.80958">
        <ele>265</ele>
        <time>2022-06-03T22:02:19Z</time>
      </trkpt>
      <trkpt lat="47.2413" lon="3.80941">
        <ele>265</ele>
        <time>2022-06-03T22:02:21Z</time>
      </trkpt>
      <trkpt lat="47.24113" lon="3.80889">
        <ele>268</ele>
        <time>2022-06-03T22:02:28Z</time>
      </trkpt>
      <trkpt lat="47.2411" lon="3.80871">
        <ele>268</ele>
        <time>2022-06-03T22:02:30Z</time>
      </trkpt>
      <trkpt lat="47.24111" lon="3.80855">
        <ele>269</ele>
        <time>2022-06-03T22:02:32Z</time>
      </trkpt>
      <trkpt lat="47.24113" lon="3.80839">
        <ele>269</ele>
        <time>2022-06-03T22:02:34Z</time>
      </trkpt>
      <trkpt lat="47.24123" lon="3.80814">
        <ele>270</ele>
        <time>2022-06-03T22:02:38Z</time>
      </trkpt>
      <trkpt lat="47.24147" lon="3.80784">
        <ele>271</ele>
        <time>2022-06-03T22:02:43Z</time>
      </trkpt>
      <trkpt lat="47.24205" lon="3.80718">
        <ele>275</ele>
        <time>2022-06-03T22:02:56Z</time>
      </trkpt>
      <trkpt lat="47.24214" lon="3.80705">
        <ele>276</ele>
        <time>2022-06-03T22:02:58Z</time>
      </trkpt>
      <trkpt lat="47.24219" lon="3.80695">
        <ele>277</ele>
        <time>2022-06-03T22:03:00Z</time>
      </trkpt>
      <trkpt lat="47.24221" lon="3.80684">
        <ele>278</ele>
        <time>2022-06-03T22:03:01Z</time>
      </trkpt>
      <trkpt lat="47.24221" lon="3.80674">
        <ele>279</ele>
        <time>2022-06-03T22:03:02Z</time>
      </trkpt>
      <trkpt lat="47.24218" lon="3.80655">
        <ele>280</ele>
        <time>2022-06-03T22:03:05Z</time>
      </trkpt>
      <trkpt lat="47.24196" lon="3.80588">
        <ele>285</ele>
        <time>2022-06-03T22:03:14Z</time>
      </trkpt>
      <trkpt lat="47.24131" lon="3.80405">
        <ele>289</ele>
        <time>2022-06-03T22:03:39Z</time>
      </trkpt>
      <trkpt lat="47.24121" lon="3.80384">
        <ele>292</ele>
        <time>2022-06-03T22:03:42Z</time>
      </trkpt>
      <trkpt lat="47.24111" lon="3.80367">
        <ele>293</ele>
        <time>2022-06-03T22:03:45Z</time>
      </trkpt>
      <trkpt lat="47.241" lon="3.80355">
        <ele>295</ele>
        <time>2022-06-03T22:03:47Z</time>
      </trkpt>
      <trkpt lat="47.24087" lon="3.80345">
        <ele>297</ele>
        <time>2022-06-03T22:03:50Z</time>
      </trkpt>
      <trkpt lat="47.24073" lon="3.80338">
        <ele>298</ele>
        <time>2022-06-03T22:03:52Z</time>
      </trkpt>
      <trkpt lat="47.24063" lon="3.80335">
        <ele>300</ele>
        <time>2022-06-03T22:03:54Z</time>
      </trkpt>
      <trkpt lat="47.23992" lon="3.80322">
        <ele>307</ele>
        <time>2022-06-03T22:04:07Z</time>
      </trkpt>
      <trkpt lat="47.23959" lon="3.80312">
        <ele>311</ele>
        <time>2022-06-03T22:04:13Z</time>
      </trkpt>
      <trkpt lat="47.23948" lon="3.80303">
        <ele>313</ele>
        <time>2022-06-03T22:04:15Z</time>
      </trkpt>
      <trkpt lat="47.23938" lon="3.80291">
        <ele>314</ele>
        <time>2022-06-03T22:04:17Z</time>
      </trkpt>
      <trkpt lat="47.23928" lon="3.80275">
        <ele>316</ele>
        <time>2022-06-03T22:04:20Z</time>
      </trkpt>
      <trkpt lat="47.23922" lon="3.80251">
        <ele>318</ele>
        <time>2022-06-03T22:04:23Z</time>
      </trkpt>
      <trkpt lat="47.23919" lon="3.80231">
        <ele>318</ele>
        <time>2022-06-03T22:04:26Z</time>
      </trkpt>
      <trkpt lat="47.23918" lon="3.80192">
        <ele>317</ele>
        <time>2022-06-03T22:04:30Z</time>
      </trkpt>
      <trkpt lat="47.2392" lon="3.80153">
        <ele>317</ele>
        <time>2022-06-03T22:04:35Z</time>
      </trkpt>
      <trkpt lat="47.23938" lon="3.79987">
        <ele>315</ele>
        <time>2022-06-03T22:04:55Z</time>
      </trkpt>
      <trkpt lat="47.23927" lon="3.79726">
        <ele>308</ele>
        <time>2022-06-03T22:05:27Z</time>
      </trkpt>
      <trkpt lat="47.23929" lon="3.79701">
        <ele>307</ele>
        <time>2022-06-03T22:05:30Z</time>
      </trkpt>
      <trkpt lat="47.23934" lon="3.79681">
        <ele>306</ele>
        <time>2022-06-03T22:05:33Z</time>
      </trkpt>
      <trkpt lat="47.23941" lon="3.79663">
        <ele>305</ele>
        <time>2022-06-03T22:05:35Z</time>
      </trkpt>
      <trkpt lat="47.23994" lon="3.79569">
        <ele>302</ele>
        <time>2022-06-03T22:05:50Z</time>
      </trkpt>
      <trkpt lat="47.24041" lon="3.79515">
        <ele>302</ele>
        <time>2022-06-03T22:06:00Z</time>
      </trkpt>
      <trkpt lat="47.24071" lon="3.79493">
        <ele>301</ele>
        <time>2022-06-03T22:06:06Z</time>
      </trkpt>
      <trkpt lat="47.24104" lon="3.79476">
        <ele>300</ele>
        <time>2022-06-03T22:06:13Z</time>
      </trkpt>
      <trkpt lat="47.24121" lon="3.79451">
        <ele>298</ele>
        <time>2022-06-03T22:06:17Z</time>
      </trkpt>
      <trkpt lat="47.24139" lon="3.79413">
        <ele>294</ele>
        <time>2022-06-03T22:06:22Z</time>
      </trkpt>
      <trkpt lat="47.24175" lon="3.79317">
        <ele>289</ele>
        <time>2022-06-03T22:06:36Z</time>
      </trkpt>
      <trkpt lat="47.24194" lon="3.79288">
        <ele>287</ele>
        <time>2022-06-03T22:06:41Z</time>
      </trkpt>
      <trkpt lat="47.24224" lon="3.7927">
        <ele>287</ele>
        <time>2022-06-03T22:06:46Z</time>
      </trkpt>
      <trkpt lat="47.24271" lon="3.79258">
        <ele>288</ele>
        <time>2022-06-03T22:06:55Z</time>
      </trkpt>
      <trkpt lat="47.24328" lon="3.79231">
        <ele>287</ele>
        <time>2022-06-03T22:07:05Z</time>
      </trkpt>
      <trkpt lat="47.24394" lon="3.79197">
        <ele>289</ele>
        <time>2022-06-03T22:07:18Z</time>
      </trkpt>
      <trkpt lat="47.24438" lon="3.79152">
        <ele>289</ele>
        <time>2022-06-03T22:07:27Z</time>
      </trkpt>
      <trkpt lat="47.24465" lon="3.79109">
        <ele>288</ele>
        <time>2022-06-03T22:07:34Z</time>
      </trkpt>
      <trkpt lat="47.24535" lon="3.78648">
        <ele>300</ele>
        <time>2022-06-03T22:08:32Z</time>
      </trkpt>
      <trkpt lat="47.24555" lon="3.7855">
        <ele>303</ele>
        <time>2022-06-03T22:08:44Z</time>
      </trkpt>
      <trkpt lat="47.2458" lon="3.78509">
        <ele>304</ele>
        <time>2022-06-03T22:08:51Z</time>
      </trkpt>
      <trkpt lat="47.2468" lon="3.78376">
        <ele>317</ele>
        <time>2022-06-03T22:09:15Z</time>
      </trkpt>
      <trkpt lat="47.24749" lon="3.78272">
        <ele>317</ele>
        <time>2022-06-03T22:09:32Z</time>
      </trkpt>
      <trkpt lat="47.24753" lon="3.78297">
        <ele>319</ele>
        <time>2022-06-03T22:09:35Z</time>
      </trkpt>
      <trkpt lat="47.24753" lon="3.78308">
        <ele>319</ele>
        <time>2022-06-03T22:09:37Z</time>
      </trkpt>
      <trkpt lat="47.24753" lon="3.78297">
        <ele>319</ele>
        <time>2022-06-03T22:09:38Z</time>
      </trkpt>
      <trkpt lat="47.24737" lon="3.78207">
        <ele>313</ele>
        <time>2022-06-03T22:09:49Z</time>
      </trkpt>
      <trkpt lat="47.24702" lon="3.78076">
        <ele>309</ele>
        <time>2022-06-03T22:10:06Z</time>
      </trkpt>
      <trkpt lat="47.24701" lon="3.78031">
        <ele>307</ele>
        <time>2022-06-03T22:10:12Z</time>
      </trkpt>
      <trkpt lat="47.24718" lon="3.77797">
        <ele>301</ele>
        <time>2022-06-03T22:10:40Z</time>
      </trkpt>
      <trkpt lat="47.2471" lon="3.77664">
        <ele>298</ele>
        <time>2022-06-03T22:10:56Z</time>
      </trkpt>
      <trkpt lat="47.24689" lon="3.77548">
        <ele>299</ele>
        <time>2022-06-03T22:11:11Z</time>
      </trkpt>
      <trkpt lat="47.24651" lon="3.77445">
        <ele>299</ele>
        <time>2022-06-03T22:11:25Z</time>
      </trkpt>
      <trkpt lat="47.246" lon="3.77346">
        <ele>300</ele>
        <time>2022-06-03T22:11:40Z</time>
      </trkpt>
      <trkpt lat="47.24562" lon="3.77262">
        <ele>302</ele>
        <time>2022-06-03T22:11:52Z</time>
      </trkpt>
      <trkpt lat="47.24536" lon="3.77213">
        <ele>301</ele>
        <time>2022-06-03T22:11:59Z</time>
      </trkpt>
      <trkpt lat="47.24504" lon="3.77168">
        <ele>300</ele>
        <time>2022-06-03T22:12:07Z</time>
      </trkpt>
      <trkpt lat="47.24433" lon="3.77074">
        <ele>299</ele>
        <time>2022-06-03T22:12:24Z</time>
      </trkpt>
      <trkpt lat="47.24354" lon="3.76983">
        <ele>296</ele>
        <time>2022-06-03T22:12:42Z</time>
      </trkpt>
      <trkpt lat="47.24337" lon="3.76958">
        <ele>296</ele>
        <time>2022-06-03T22:12:46Z</time>
      </trkpt>
      <trkpt lat="47.24213" lon="3.76696">
        <ele>285</ele>
        <time>2022-06-03T22:13:25Z</time>
      </trkpt>
      <trkpt lat="47.24188" lon="3.76623">
        <ele>285</ele>
        <time>2022-06-03T22:13:35Z</time>
      </trkpt>
      <trkpt lat="47.24147" lon="3.76495">
        <ele>292</ele>
        <time>2022-06-03T22:13:52Z</time>
      </trkpt>
      <trkpt lat="47.24059" lon="3.76177">
        <ele>303</ele>
        <time>2022-06-03T22:14:33Z</time>
      </trkpt>
      <trkpt lat="47.24049" lon="3.76135">
        <ele>302</ele>
        <time>2022-06-03T22:14:39Z</time>
      </trkpt>
      <trkpt lat="47.24042" lon="3.76093">
        <ele>301</ele>
        <time>2022-06-03T22:14:44Z</time>
      </trkpt>
      <trkpt lat="47.24039" lon="3.76055">
        <ele>300</ele>
        <time>2022-06-03T22:14:49Z</time>
      </trkpt>
      <trkpt lat="47.24039" lon="3.76027">
        <ele>298</ele>
        <time>2022-06-03T22:14:52Z</time>
      </trkpt>
      <trkpt lat="47.24041" lon="3.76">
        <ele>297</ele>
        <time>2022-06-03T22:14:55Z</time>
      </trkpt>
      <trkpt lat="47.24055" lon="3.7586">
        <ele>294</ele>
        <time>2022-06-03T22:15:12Z</time>
      </trkpt>
      <trkpt lat="47.24057" lon="3.75826">
        <ele>293</ele>
        <time>2022-06-03T22:15:17Z</time>
      </trkpt>
      <trkpt lat="47.24054" lon="3.75746">
        <ele>294</ele>
        <time>2022-06-03T22:15:26Z</time>
      </trkpt>
      <trkpt lat="47.24054" lon="3.7569">
        <ele>296</ele>
        <time>2022-06-03T22:15:33Z</time>
      </trkpt>
      <trkpt lat="47.24058" lon="3.75613">
        <ele>297</ele>
        <time>2022-06-03T22:15:42Z</time>
      </trkpt>
      <trkpt lat="47.24056" lon="3.75567">
        <ele>297</ele>
        <time>2022-06-03T22:15:48Z</time>
      </trkpt>
      <trkpt lat="47.24059" lon="3.7555">
        <ele>297</ele>
        <time>2022-06-03T22:15:50Z</time>
      </trkpt>
      <trkpt lat="47.24065" lon="3.75532">
        <ele>297</ele>
        <time>2022-06-03T22:15:52Z</time>
      </trkpt>
      <trkpt lat="47.24083" lon="3.75493">
        <ele>297</ele>
        <time>2022-06-03T22:15:58Z</time>
      </trkpt>
      <trkpt lat="47.24088" lon="3.75478">
        <ele>296</ele>
        <time>2022-06-03T22:16:00Z</time>
      </trkpt>
      <trkpt lat="47.24084" lon="3.7525">
        <ele>290</ele>
        <time>2022-06-03T22:16:28Z</time>
      </trkpt>
      <trkpt lat="47.24085" lon="3.75207">
        <ele>289</ele>
        <time>2022-06-03T22:16:33Z</time>
      </trkpt>
      <trkpt lat="47.2409" lon="3.75167">
        <ele>288</ele>
        <time>2022-06-03T22:16:38Z</time>
      </trkpt>
      <trkpt lat="47.24118" lon="3.7502">
        <ele>277</ele>
        <time>2022-06-03T22:16:56Z</time>
      </trkpt>
      <trkpt lat="47.24149" lon="3.74874">
        <ele>272</ele>
        <time>2022-06-03T22:17:15Z</time>
      </trkpt>
      <trkpt lat="47.24189" lon="3.74676">
        <ele>264</ele>
        <time>2022-06-03T22:17:40Z</time>
      </trkpt>
      <trkpt lat="47.24194" lon="3.7464">
        <ele>263</ele>
        <time>2022-06-03T22:17:44Z</time>
      </trkpt>
      <trkpt lat="47.24197" lon="3.74601">
        <ele>262</ele>
        <time>2022-06-03T22:17:49Z</time>
      </trkpt>
      <trkpt lat="47.24192" lon="3.74376">
        <ele>259</ele>
        <time>2022-06-03T22:18:16Z</time>
      </trkpt>
      <trkpt lat="47.24196" lon="3.74323">
        <ele>258</ele>
        <time>2022-06-03T22:18:23Z</time>
      </trkpt>
      <trkpt lat="47.24259" lon="3.73831">
        <ele>236</ele>
        <time>2022-06-03T22:19:23Z</time>
      </trkpt>
      <trkpt lat="47.24288" lon="3.73621">
        <ele>230</ele>
        <time>2022-06-03T22:19:49Z</time>
      </trkpt>
      <trkpt lat="47.24299" lon="3.73555">
        <ele>228</ele>
        <time>2022-06-03T22:19:57Z</time>
      </trkpt>
      <trkpt lat="47.2431" lon="3.73508">
        <ele>227</ele>
        <time>2022-06-03T22:20:03Z</time>
      </trkpt>
      <trkpt lat="47.24326" lon="3.73461">
        <ele>227</ele>
        <time>2022-06-03T22:20:09Z</time>
      </trkpt>
      <trkpt lat="47.24439" lon="3.73168">
        <ele>217</ele>
        <time>2022-06-03T22:20:50Z</time>
      </trkpt>
      <trkpt lat="47.24487" lon="3.73025">
        <ele>213</ele>
        <time>2022-06-03T22:21:09Z</time>
      </trkpt>
      <trkpt lat="47.24506" lon="3.72942">
        <ele>212</ele>
        <time>2022-06-03T22:21:20Z</time>
      </trkpt>
      <trkpt lat="47.24531" lon="3.72808">
        <ele>209</ele>
        <time>2022-06-03T22:21:37Z</time>
      </trkpt>
      <trkpt lat="47.24544" lon="3.72699">
        <ele>211</ele>
        <time>2022-06-03T22:21:50Z</time>
      </trkpt>
      <trkpt lat="47.24567" lon="3.726">
        <ele>212</ele>
        <time>2022-06-03T22:22:03Z</time>
      </trkpt>
      <trkpt lat="47.24597" lon="3.72545">
        <ele>209</ele>
        <time>2022-06-03T22:22:11Z</time>
      </trkpt>
      <trkpt lat="47.24636" lon="3.72467">
        <ele>208</ele>
        <time>2022-06-03T22:22:23Z</time>
      </trkpt>
      <trkpt lat="47.24656" lon="3.72425">
        <ele>208</ele>
        <time>2022-06-03T22:22:29Z</time>
      </trkpt>
      <trkpt lat="47.24667" lon="3.7239">
        <ele>209</ele>
        <time>2022-06-03T22:22:34Z</time>
      </trkpt>
      <trkpt lat="47.24672" lon="3.72351">
        <ele>211</ele>
        <time>2022-06-03T22:22:39Z</time>
      </trkpt>
      <trkpt lat="47.24675" lon="3.72236">
        <ele>217</ele>
        <time>2022-06-03T22:22:53Z</time>
      </trkpt>
      <trkpt lat="47.24686" lon="3.71918">
        <ele>213</ele>
        <time>2022-06-03T22:23:31Z</time>
      </trkpt>
      <trkpt lat="47.24705" lon="3.71768">
        <ele>215</ele>
        <time>2022-06-03T22:23:49Z</time>
      </trkpt>
      <trkpt lat="47.24738" lon="3.71556">
        <ele>211</ele>
        <time>2022-06-03T22:24:16Z</time>
      </trkpt>
      <trkpt lat="47.24753" lon="3.71489">
        <ele>210</ele>
        <time>2022-06-03T22:24:24Z</time>
      </trkpt>
      <trkpt lat="47.24759" lon="3.7147">
        <ele>211</ele>
        <time>2022-06-03T22:24:27Z</time>
      </trkpt>
      <trkpt lat="47.24783" lon="3.71413">
        <ele>211</ele>
        <time>2022-06-03T22:24:35Z</time>
      </trkpt>
      <trkpt lat="47.24825" lon="3.71331">
        <ele>211</ele>
        <time>2022-06-03T22:24:47Z</time>
      </trkpt>
      <trkpt lat="47.24838" lon="3.71303">
        <ele>210</ele>
        <time>2022-06-03T22:24:51Z</time>
      </trkpt>
      <trkpt lat="47.24853" lon="3.71248">
        <ele>212</ele>
        <time>2022-06-03T22:24:59Z</time>
      </trkpt>
      <trkpt lat="47.24867" lon="3.71181">
        <ele>211</ele>
        <time>2022-06-03T22:25:07Z</time>
      </trkpt>
      <trkpt lat="47.24941" lon="3.70711">
        <ele>201</ele>
        <time>2022-06-03T22:26:05Z</time>
      </trkpt>
      <trkpt lat="47.24953" lon="3.70656">
        <ele>201</ele>
        <time>2022-06-03T22:26:12Z</time>
      </trkpt>
      <trkpt lat="47.2497" lon="3.70617">
        <ele>200</ele>
        <time>2022-06-03T22:26:18Z</time>
      </trkpt>
      <trkpt lat="47.24984" lon="3.70593">
        <ele>200</ele>
        <time>2022-06-03T22:26:22Z</time>
      </trkpt>
      <trkpt lat="47.25025" lon="3.70531">
        <ele>201</ele>
        <time>2022-06-03T22:26:32Z</time>
      </trkpt>
      <trkpt lat="47.2505" lon="3.70498">
        <ele>202</ele>
        <time>2022-06-03T22:26:38Z</time>
      </trkpt>
      <trkpt lat="47.25101" lon="3.70439">
        <ele>202</ele>
        <time>2022-06-03T22:26:50Z</time>
      </trkpt>
      <trkpt lat="47.25272" lon="3.70207">
        <ele>201</ele>
        <time>2022-06-03T22:27:31Z</time>
      </trkpt>
      <trkpt lat="47.25306" lon="3.70159">
        <ele>200</ele>
        <time>2022-06-03T22:27:39Z</time>
      </trkpt>
      <trkpt lat="47.25332" lon="3.70113">
        <ele>200</ele>
        <time>2022-06-03T22:27:47Z</time>
      </trkpt>
      <trkpt lat="47.25357" lon="3.70059">
        <ele>201</ele>
        <time>2022-06-03T22:27:55Z</time>
      </trkpt>
      <trkpt lat="47.25379" lon="3.69998">
        <ele>201</ele>
        <time>2022-06-03T22:28:03Z</time>
      </trkpt>
      <trkpt lat="47.25431" lon="3.69827">
        <ele>198</ele>
        <time>2022-06-03T22:28:26Z</time>
      </trkpt>
      <trkpt lat="47.25448" lon="3.69756">
        <ele>199</ele>
        <time>2022-06-03T22:28:35Z</time>
      </trkpt>
      <trkpt lat="47.25475" lon="3.69629">
        <ele>197</ele>
        <time>2022-06-03T22:28:51Z</time>
      </trkpt>
      <trkpt lat="47.25507" lon="3.69523">
        <ele>197</ele>
        <time>2022-06-03T22:29:05Z</time>
      </trkpt>
      <trkpt lat="47.25571" lon="3.69349">
        <ele>198</ele>
        <time>2022-06-03T22:29:29Z</time>
      </trkpt>
      <trkpt lat="47.25588" lon="3.69308">
        <ele>198</ele>
        <time>2022-06-03T22:29:34Z</time>
      </trkpt>
      <trkpt lat="47.25644" lon="3.69185">
        <ele>198</ele>
        <time>2022-06-03T22:29:52Z</time>
      </trkpt>
      <trkpt lat="47.25655" lon="3.69153">
        <ele>198</ele>
        <time>2022-06-03T22:29:57Z</time>
      </trkpt>
      <trkpt lat="47.25678" lon="3.69064">
        <ele>197</ele>
        <time>2022-06-03T22:30:08Z</time>
      </trkpt>
      <trkpt lat="47.25735" lon="3.68902">
        <ele>197</ele>
        <time>2022-06-03T22:30:30Z</time>
      </trkpt>
      <trkpt lat="47.25768" lon="3.68757">
        <ele>197</ele>
        <time>2022-06-03T22:30:49Z</time>
      </trkpt>
      <trkpt lat="47.25774" lon="3.68741">
        <ele>197</ele>
        <time>2022-06-03T22:30:51Z</time>
      </trkpt>
      <trkpt lat="47.25792" lon="3.687">
        <ele>197</ele>
        <time>2022-06-03T22:30:57Z</time>
      </trkpt>
      <trkpt lat="47.2582" lon="3.68595">
        <ele>195</ele>
        <time>2022-06-03T22:31:10Z</time>
      </trkpt>
      <trkpt lat="47.25815" lon="3.68586">
        <ele>195</ele>
        <time>2022-06-03T22:31:12Z</time>
      </trkpt>
      <trkpt lat="47.25809" lon="3.68575">
        <ele>195</ele>
        <time>2022-06-03T22:31:13Z</time>
      </trkpt>
      <trkpt lat="47.258" lon="3.68561">
        <ele>196</ele>
        <time>2022-06-03T22:31:16Z</time>
      </trkpt>
      <trkpt lat="47.2578" lon="3.68533">
        <ele>196</ele>
        <time>2022-06-03T22:31:21Z</time>
      </trkpt>
      <trkpt lat="47.25773" lon="3.68522">
        <ele>197</ele>
        <time>2022-06-03T22:31:23Z</time>
      </trkpt>
      <trkpt lat="47.25745" lon="3.68484">
        <ele>198</ele>
        <time>2022-06-03T22:31:29Z</time>
      </trkpt>
      <trkpt lat="47.25741" lon="3.68471">
        <ele>198</ele>
        <time>2022-06-03T22:31:31Z</time>
      </trkpt>
      <trkpt lat="47.25736" lon="3.68436">
        <ele>199</ele>
        <time>2022-06-03T22:31:35Z</time>
      </trkpt>
      <trkpt lat="47.25738" lon="3.68425">
        <ele>199</ele>
        <time>2022-06-03T22:31:37Z</time>
      </trkpt>
      <trkpt lat="47.25754" lon="3.68419">
        <ele>199</ele>
        <time>2022-06-03T22:31:40Z</time>
      </trkpt>
      <trkpt lat="47.25817" lon="3.68359">
        <ele>198</ele>
        <time>2022-06-03T22:31:53Z</time>
      </trkpt>
      <trkpt lat="47.25826" lon="3.68346">
        <ele>198</ele>
        <time>2022-06-03T22:31:55Z</time>
      </trkpt>
      <trkpt lat="47.25831" lon="3.68336">
        <ele>199</ele>
        <time>2022-06-03T22:31:57Z</time>
      </trkpt>
      <trkpt lat="47.25835" lon="3.6831">
        <ele>199</ele>
        <time>2022-06-03T22:32:00Z</time>
      </trkpt>
      <trkpt lat="47.2584" lon="3.68286">
        <ele>199</ele>
        <time>2022-06-03T22:32:03Z</time>
      </trkpt>
      <trkpt lat="47.25854" lon="3.68251">
        <ele>199</ele>
        <time>2022-06-03T22:32:08Z</time>
      </trkpt>
      <trkpt lat="47.25858" lon="3.68243">
        <ele>199</ele>
        <time>2022-06-03T22:32:09Z</time>
      </trkpt>
      <trkpt lat="47.2587" lon="3.68233">
        <ele>199</ele>
        <time>2022-06-03T22:32:12Z</time>
      </trkpt>
      <trkpt lat="47.25971" lon="3.68162">
        <ele>197</ele>
        <time>2022-06-03T22:32:31Z</time>
      </trkpt>
      <trkpt lat="47.26026" lon="3.68133">
        <ele>196</ele>
        <time>2022-06-03T22:32:42Z</time>
      </trkpt>
      <trkpt lat="47.26046" lon="3.68126">
        <ele>196</ele>
        <time>2022-06-03T22:32:45Z</time>
      </trkpt>
      <trkpt lat="47.2615" lon="3.681">
        <ele>199</ele>
        <time>2022-06-03T22:33:04Z</time>
      </trkpt>
      <trkpt lat="47.26164" lon="3.68095">
        <ele>199</ele>
        <time>2022-06-03T22:33:07Z</time>
      </trkpt>
      <trkpt lat="47.26169" lon="3.68091">
        <ele>199</ele>
        <time>2022-06-03T22:33:08Z</time>
      </trkpt>
      <trkpt lat="47.26194" lon="3.68041">
        <ele>198</ele>
        <time>2022-06-03T22:33:15Z</time>
      </trkpt>
      <trkpt lat="47.26232" lon="3.67937">
        <ele>196</ele>
        <time>2022-06-03T22:33:30Z</time>
      </trkpt>
      <trkpt lat="47.26369" lon="3.67572">
        <ele>208</ele>
        <time>2022-06-03T22:34:20Z</time>
      </trkpt>
      <trkpt lat="47.2638" lon="3.67549">
        <ele>209</ele>
        <time>2022-06-03T22:34:23Z</time>
      </trkpt>
      <trkpt lat="47.26393" lon="3.67531">
        <ele>210</ele>
        <time>2022-06-03T22:34:27Z</time>
      </trkpt>
      <trkpt lat="47.2641" lon="3.67512">
        <ele>212</ele>
        <time>2022-06-03T22:34:30Z</time>
      </trkpt>
      <trkpt lat="47.26429" lon="3.67495">
        <ele>215</ele>
        <time>2022-06-03T22:34:34Z</time>
      </trkpt>
      <trkpt lat="47.26668" lon="3.67316">
        <ele>222</ele>
        <time>2022-06-03T22:35:22Z</time>
      </trkpt>
      <trkpt lat="47.26691" lon="3.67296">
        <ele>222</ele>
        <time>2022-06-03T22:35:27Z</time>
      </trkpt>
      <trkpt lat="47.27047" lon="3.66941">
        <ele>209</ele>
        <time>2022-06-03T22:36:43Z</time>
      </trkpt>
      <trkpt lat="47.27083" lon="3.6689">
        <ele>210</ele>
        <time>2022-06-03T22:36:52Z</time>
      </trkpt>
      <trkpt lat="47.27143" lon="3.66764">
        <ele>214</ele>
        <time>2022-06-03T22:37:11Z</time>
      </trkpt>
      <trkpt lat="47.27184" lon="3.66696">
        <ele>215</ele>
        <time>2022-06-03T22:37:22Z</time>
      </trkpt>
      <trkpt lat="47.27214" lon="3.66665">
        <ele>216</ele>
        <time>2022-06-03T22:37:28Z</time>
      </trkpt>
      <trkpt lat="47.27255" lon="3.66642">
        <ele>219</ele>
        <time>2022-06-03T22:37:36Z</time>
      </trkpt>
      <trkpt lat="47.27285" lon="3.66632">
        <ele>220</ele>
        <time>2022-06-03T22:37:41Z</time>
      </trkpt>
      <trkpt lat="47.27316" lon="3.66629">
        <ele>221</ele>
        <time>2022-06-03T22:37:47Z</time>
      </trkpt>
      <trkpt lat="47.27486" lon="3.6666">
        <ele>218</ele>
        <time>2022-06-03T22:38:17Z</time>
      </trkpt>
      <trkpt lat="47.27805" lon="3.6671">
        <ele>221</ele>
        <time>2022-06-03T22:39:15Z</time>
      </trkpt>
      <trkpt lat="47.28006" lon="3.66773">
        <ele>214</ele>
        <time>2022-06-03T22:39:51Z</time>
      </trkpt>
      <trkpt lat="47.28096" lon="3.66805">
        <ele>215</ele>
        <time>2022-06-03T22:40:08Z</time>
      </trkpt>
      <trkpt lat="47.28448" lon="3.66939">
        <ele>211</ele>
        <time>2022-06-03T22:41:12Z</time>
      </trkpt>
      <trkpt lat="47.28512" lon="3.66955">
        <ele>208</ele>
        <time>2022-06-03T22:41:24Z</time>
      </trkpt>
      <trkpt lat="47.28755" lon="3.66993">
        <ele>215</ele>
        <time>2022-06-03T22:42:07Z</time>
      </trkpt>
      <trkpt lat="47.28788" lon="3.67">
        <ele>214</ele>
        <time>2022-06-03T22:42:13Z</time>
      </trkpt>
      <trkpt lat="47.28849" lon="3.67022">
        <ele>211</ele>
        <time>2022-06-03T22:42:24Z</time>
      </trkpt>
      <trkpt lat="47.28974" lon="3.67083">
        <ele>204</ele>
        <time>2022-06-03T22:42:48Z</time>
      </trkpt>
      <trkpt lat="47.29032" lon="3.67094">
        <ele>200</ele>
        <time>2022-06-03T22:42:58Z</time>
      </trkpt>
      <trkpt lat="47.29073" lon="3.67091">
        <ele>198</ele>
        <time>2022-06-03T22:43:06Z</time>
      </trkpt>
      <trkpt lat="47.2911" lon="3.67078">
        <ele>197</ele>
        <time>2022-06-03T22:43:12Z</time>
      </trkpt>
      <trkpt lat="47.29195" lon="3.67012">
        <ele>192</ele>
        <time>2022-06-03T22:43:29Z</time>
      </trkpt>
      <trkpt lat="47.29225" lon="3.66997">
        <ele>190</ele>
        <time>2022-06-03T22:43:35Z</time>
      </trkpt>
      <trkpt lat="47.29304" lon="3.66986">
        <ele>188</ele>
        <time>2022-06-03T22:43:49Z</time>
      </trkpt>
      <trkpt lat="47.29629" lon="3.66997">
        <ele>183</ele>
        <time>2022-06-03T22:44:47Z</time>
      </trkpt>
      <trkpt lat="47.30511" lon="3.66897">
        <ele>182</ele>
        <time>2022-06-03T22:47:24Z</time>
      </trkpt>
      <trkpt lat="47.30693" lon="3.66883">
        <ele>182</ele>
        <time>2022-06-03T22:47:57Z</time>
      </trkpt>
      <trkpt lat="47.30867" lon="3.66873">
        <ele>183</ele>
        <time>2022-06-03T22:48:28Z</time>
      </trkpt>
      <trkpt lat="47.31516" lon="3.66822">
        <ele>177</ele>
        <time>2022-06-03T22:50:23Z</time>
      </trkpt>
      <trkpt lat="47.31513" lon="3.66794">
        <ele>177</ele>
        <time>2022-06-03T22:50:27Z</time>
      </trkpt>
      <trkpt lat="47.31494" lon="3.66747">
        <ele>177</ele>
        <time>2022-06-03T22:50:33Z</time>
      </trkpt>
      <trkpt lat="47.3148" lon="3.6672">
        <ele>177</ele>
        <time>2022-06-03T22:50:38Z</time>
      </trkpt>
      <trkpt lat="47.31419" lon="3.66621">
        <ele>175</ele>
        <time>2022-06-03T22:50:54Z</time>
      </trkpt>
      <trkpt lat="47.31405" lon="3.66596">
        <ele>174</ele>
        <time>2022-06-03T22:50:58Z</time>
      </trkpt>
      <trkpt lat="47.3139" lon="3.66561">
        <ele>173</ele>
        <time>2022-06-03T22:51:03Z</time>
      </trkpt>
      <trkpt lat="47.31373" lon="3.66514">
        <ele>172</ele>
        <time>2022-06-03T22:51:09Z</time>
      </trkpt>
      <trkpt lat="47.31368" lon="3.66494">
        <ele>171</ele>
        <time>2022-06-03T22:51:12Z</time>
      </trkpt>
      <trkpt lat="47.31366" lon="3.66476">
        <ele>171</ele>
        <time>2022-06-03T22:51:14Z</time>
      </trkpt>
      <trkpt lat="47.31367" lon="3.66449">
        <ele>171</ele>
        <time>2022-06-03T22:51:17Z</time>
      </trkpt>
      <trkpt lat="47.31465" lon="3.6576">
        <ele>172</ele>
        <time>2022-06-03T22:52:42Z</time>
      </trkpt>
      <trkpt lat="47.31466" lon="3.65713">
        <ele>173</ele>
        <time>2022-06-03T22:52:48Z</time>
      </trkpt>
      <trkpt lat="47.31463" lon="3.65672">
        <ele>174</ele>
        <time>2022-06-03T22:52:53Z</time>
      </trkpt>
      <trkpt lat="47.31458" lon="3.65649">
        <ele>174</ele>
        <time>2022-06-03T22:52:56Z</time>
      </trkpt>
      <trkpt lat="47.31456" lon="3.65638">
        <ele>175</ele>
        <time>2022-06-03T22:52:57Z</time>
      </trkpt>
      <trkpt lat="47.31455" lon="3.65629">
        <ele>175</ele>
        <time>2022-06-03T22:52:58Z</time>
      </trkpt>
      <trkpt lat="47.31569" lon="3.65571">
        <ele>173</ele>
        <time>2022-06-03T22:53:20Z</time>
      </trkpt>
      <trkpt lat="47.31662" lon="3.6554">
        <ele>173</ele>
        <time>2022-06-03T22:53:36Z</time>
      </trkpt>
      <trkpt lat="47.31675" lon="3.65539">
        <ele>173</ele>
        <time>2022-06-03T22:53:39Z</time>
      </trkpt>
      <trkpt lat="47.31753" lon="3.65555">
        <ele>173</ele>
        <time>2022-06-03T22:53:53Z</time>
      </trkpt>
      <trkpt lat="47.31786" lon="3.65569">
        <ele>173</ele>
        <time>2022-06-03T22:53:59Z</time>
      </trkpt>
      <trkpt lat="47.31894" lon="3.65608">
        <ele>175</ele>
        <time>2022-06-03T22:54:19Z</time>
      </trkpt>
      <trkpt lat="47.31973" lon="3.65633">
        <ele>174</ele>
        <time>2022-06-03T22:54:33Z</time>
      </trkpt>
      <trkpt lat="47.31981" lon="3.6563">
        <ele>174</ele>
        <time>2022-06-03T22:54:35Z</time>
      </trkpt>
      <trkpt lat="47.31984" lon="3.65605">
        <ele>175</ele>
        <time>2022-06-03T22:54:38Z</time>
      </trkpt>
      <trkpt lat="47.32034" lon="3.65609">
        <ele>174</ele>
        <time>2022-06-03T22:54:47Z</time>
      </trkpt>
      <trkpt lat="47.32039" lon="3.65608">
        <ele>174</ele>
        <time>2022-06-03T22:54:47Z</time>
      </trkpt>
      <trkpt lat="47.3205" lon="3.65596">
        <ele>174</ele>
        <time>2022-06-03T22:54:50Z</time>
      </trkpt>
      <trkpt lat="47.32064" lon="3.65576">
        <ele>174</ele>
        <time>2022-06-03T22:54:53Z</time>
      </trkpt>
      <trkpt lat="47.32075" lon="3.65562">
        <ele>174</ele>
        <time>2022-06-03T22:54:56Z</time>
      </trkpt>
      <trkpt lat="47.32089" lon="3.65553">
        <ele>173</ele>
        <time>2022-06-03T22:54:59Z</time>
      </trkpt>
      <trkpt lat="47.32134" lon="3.65537">
        <ele>173</ele>
        <time>2022-06-03T22:55:07Z</time>
      </trkpt>
    </trkseg>
  </trk>
</gpx>